
<gpx xmlns="http://www.topografix.com/GPX/1/1" xmlns:gpxx="http://www.garmin.com/xmlschemas/GpxExtensions/v3" xmlns:xsi="http://www.w3.org/2001/XMLSchema-instance" version="1.1" creator="Adze - https://getadze.com/" xsi:schemaLocation="http://www.topografix.com/GPX/1/1 http://www.topografix.com/GPX/1/1/gpx.xsd http://www.garmin.com/xmlschemas/GpxExtensions/v3 http://www.garmin.com/xmlschemas/GpxExtensionsv3.xsd">
    <metadata>
        <name>Untitled Document</name>
        <link href="http://www.garmin.com"></link>
        <time>2018-03-06T04:30:59.892Z</time>
    </metadata>
    <wpt lon="99.344100" lat="13.515035">
        <ele>128.000000</ele>
        <name>Pavothai</name>
        <cmt>21-OCT-06 12:41:20</cmt>
        <desc>21-OCT-06 12:41:20</desc>
        <sym>Block, Blue</sym>
        <extensions>
            <gpxx:WaypointExtension xmlns:gpxx="http://www.garmin.com/xmlschemas/GpxExtensions/v2" xmlns:xsi="http://www.w3.org/2001/XMLSchema-instance" xsi:schemaLocation="http://www.garmin.com/xmlschemas/GpxExtensions/v2 http://www.garmin.com/xmlschemas/GpxExtensions/v2/GpxExtensionsv2.xsd">
                <gpxx:DisplayMode>SymbolAndName</gpxx:DisplayMode>
            </gpxx:WaypointExtension>
        </extensions>
    </wpt>
    <wpt lon="99.322193" lat="13.495118">
        <name>October 2006 - Saturday water stop</name>
    </wpt>
    <trk>
        <name>October 2006 - Saturday</name>
        <extensions>
            <gpxx:TrackExtension>
                <gpxx:DisplayColor>Blue</gpxx:DisplayColor>
            </gpxx:TrackExtension>
        </extensions>
        <trkseg>
            <trkpt lon="99.344252" lat="13.515292">
                <ele>118.379395</ele>
                <time>2006-10-21T06:04:34Z</time>
            </trkpt>
            <trkpt lon="99.344056" lat="13.514995">
                <ele>111.650269</ele>
                <time>2006-10-21T06:04:50Z</time>
            </trkpt>
            <trkpt lon="99.344133" lat="13.514887">
                <ele>108.285645</ele>
                <time>2006-10-21T06:04:55Z</time>
            </trkpt>
            <trkpt lon="99.344412" lat="13.514800">
                <ele>108.285645</ele>
                <time>2006-10-21T06:05:06Z</time>
            </trkpt>
            <trkpt lon="99.344418" lat="13.514723">
                <ele>108.766235</ele>
                <time>2006-10-21T06:05:10Z</time>
            </trkpt>
            <trkpt lon="99.344289" lat="13.514644">
                <ele>113.092285</ele>
                <time>2006-10-21T06:05:24Z</time>
            </trkpt>
            <trkpt lon="99.344242" lat="13.514634">
                <ele>126.550659</ele>
                <time>2006-10-21T06:06:16Z</time>
            </trkpt>
            <trkpt lon="99.344189" lat="13.514568">
                <ele>123.186157</ele>
                <time>2006-10-21T06:08:43Z</time>
            </trkpt>
            <trkpt lon="99.344052" lat="13.514514">
                <ele>123.666748</ele>
                <time>2006-10-21T06:08:50Z</time>
            </trkpt>
            <trkpt lon="99.343989" lat="13.514603">
                <ele>122.705444</ele>
                <time>2006-10-21T06:08:54Z</time>
            </trkpt>
            <trkpt lon="99.343791" lat="13.515059">
                <ele>120.782837</ele>
                <time>2006-10-21T06:09:06Z</time>
            </trkpt>
            <trkpt lon="99.343843" lat="13.515704">
                <ele>120.302124</ele>
                <time>2006-10-21T06:09:18Z</time>
            </trkpt>
            <trkpt lon="99.344058" lat="13.516876">
                <ele>116.937500</ele>
                <time>2006-10-21T06:09:39Z</time>
            </trkpt>
            <trkpt lon="99.344273" lat="13.517869">
                <ele>114.534180</ele>
                <time>2006-10-21T06:09:58Z</time>
            </trkpt>
            <trkpt lon="99.344326" lat="13.518216">
                <ele>115.495605</ele>
                <time>2006-10-21T06:10:05Z</time>
            </trkpt>
            <trkpt lon="99.344374" lat="13.518356">
                <ele>114.534180</ele>
                <time>2006-10-21T06:10:09Z</time>
            </trkpt>
            <trkpt lon="99.344344" lat="13.518416">
                <ele>115.014893</ele>
                <time>2006-10-21T06:10:13Z</time>
            </trkpt>
            <trkpt lon="99.344357" lat="13.518662">
                <ele>115.495605</ele>
                <time>2006-10-21T06:10:20Z</time>
            </trkpt>
            <trkpt lon="99.344352" lat="13.518873">
                <ele>115.495605</ele>
                <time>2006-10-21T06:10:25Z</time>
            </trkpt>
            <trkpt lon="99.344342" lat="13.519307">
                <ele>116.456787</ele>
                <time>2006-10-21T06:10:36Z</time>
            </trkpt>
            <trkpt lon="99.344347" lat="13.519636">
                <ele>117.898804</ele>
                <time>2006-10-21T06:10:44Z</time>
            </trkpt>
            <trkpt lon="99.344252" lat="13.519885">
                <ele>115.976196</ele>
                <time>2006-10-21T06:10:50Z</time>
            </trkpt>
            <trkpt lon="99.344184" lat="13.520332">
                <ele>118.860107</ele>
                <time>2006-10-21T06:11:04Z</time>
            </trkpt>
            <trkpt lon="99.344184" lat="13.520327">
                <ele>121.744141</ele>
                <time>2006-10-21T06:11:45Z</time>
            </trkpt>
            <trkpt lon="99.344117" lat="13.520513">
                <ele>120.302124</ele>
                <time>2006-10-21T06:11:56Z</time>
            </trkpt>
            <trkpt lon="99.343862" lat="13.520638">
                <ele>118.860107</ele>
                <time>2006-10-21T06:12:05Z</time>
            </trkpt>
            <trkpt lon="99.343653" lat="13.520679">
                <ele>118.860107</ele>
                <time>2006-10-21T06:12:12Z</time>
            </trkpt>
            <trkpt lon="99.343626" lat="13.520676">
                <ele>118.379395</ele>
                <time>2006-10-21T06:12:22Z</time>
            </trkpt>
            <trkpt lon="99.343330" lat="13.520575">
                <ele>118.379395</ele>
                <time>2006-10-21T06:12:32Z</time>
            </trkpt>
            <trkpt lon="99.343273" lat="13.520533">
                <ele>117.418213</ele>
                <time>2006-10-21T06:12:34Z</time>
            </trkpt>
            <trkpt lon="99.343201" lat="13.520377">
                <ele>117.418213</ele>
                <time>2006-10-21T06:12:39Z</time>
            </trkpt>
            <trkpt lon="99.342861" lat="13.520134">
                <ele>115.976196</ele>
                <time>2006-10-21T06:12:51Z</time>
            </trkpt>
            <trkpt lon="99.342693" lat="13.520002">
                <ele>112.130981</ele>
                <time>2006-10-21T06:12:57Z</time>
            </trkpt>
            <trkpt lon="99.342599" lat="13.520023">
                <ele>111.650269</ele>
                <time>2006-10-21T06:13:00Z</time>
            </trkpt>
            <trkpt lon="99.341870" lat="13.520510">
                <ele>109.246948</ele>
                <time>2006-10-21T06:13:17Z</time>
            </trkpt>
            <trkpt lon="99.341499" lat="13.520712">
                <ele>110.688843</ele>
                <time>2006-10-21T06:13:25Z</time>
            </trkpt>
            <trkpt lon="99.341406" lat="13.520878">
                <ele>112.130981</ele>
                <time>2006-10-21T06:13:29Z</time>
            </trkpt>
            <trkpt lon="99.341386" lat="13.521028">
                <ele>112.130981</ele>
                <time>2006-10-21T06:13:32Z</time>
            </trkpt>
            <trkpt lon="99.341176" lat="13.521588">
                <ele>112.611572</ele>
                <time>2006-10-21T06:13:46Z</time>
            </trkpt>
            <trkpt lon="99.340991" lat="13.522286">
                <ele>113.572998</ele>
                <time>2006-10-21T06:14:04Z</time>
            </trkpt>
            <trkpt lon="99.340647" lat="13.523018">
                <ele>115.495605</ele>
                <time>2006-10-21T06:14:23Z</time>
            </trkpt>
            <trkpt lon="99.340572" lat="13.523300">
                <ele>115.014893</ele>
                <time>2006-10-21T06:14:31Z</time>
            </trkpt>
            <trkpt lon="99.340628" lat="13.523462">
                <ele>114.534180</ele>
                <time>2006-10-21T06:14:35Z</time>
            </trkpt>
            <trkpt lon="99.340673" lat="13.523625">
                <ele>114.053589</ele>
                <time>2006-10-21T06:14:39Z</time>
            </trkpt>
            <trkpt lon="99.340782" lat="13.524143">
                <ele>114.534180</ele>
                <time>2006-10-21T06:14:53Z</time>
            </trkpt>
            <trkpt lon="99.341054" lat="13.524818">
                <ele>116.937500</ele>
                <time>2006-10-21T06:15:14Z</time>
            </trkpt>
            <trkpt lon="99.341374" lat="13.525539">
                <ele>119.340820</ele>
                <time>2006-10-21T06:15:32Z</time>
            </trkpt>
            <trkpt lon="99.341395" lat="13.525626">
                <ele>119.340820</ele>
                <time>2006-10-21T06:15:35Z</time>
            </trkpt>
            <trkpt lon="99.341270" lat="13.525670">
                <ele>118.860107</ele>
                <time>2006-10-21T06:15:40Z</time>
            </trkpt>
            <trkpt lon="99.340861" lat="13.525836">
                <ele>117.898804</ele>
                <time>2006-10-21T06:15:53Z</time>
            </trkpt>
            <trkpt lon="99.340379" lat="13.526011">
                <ele>116.937500</ele>
                <time>2006-10-21T06:16:09Z</time>
            </trkpt>
            <trkpt lon="99.340376" lat="13.526011">
                <ele>116.937500</ele>
                <time>2006-10-21T06:16:25Z</time>
            </trkpt>
            <trkpt lon="99.340243" lat="13.526075">
                <ele>115.495605</ele>
                <time>2006-10-21T06:17:19Z</time>
            </trkpt>
            <trkpt lon="99.339668" lat="13.526319">
                <ele>112.611572</ele>
                <time>2006-10-21T06:17:38Z</time>
            </trkpt>
            <trkpt lon="99.339385" lat="13.526430">
                <ele>112.611572</ele>
                <time>2006-10-21T06:17:54Z</time>
            </trkpt>
            <trkpt lon="99.339342" lat="13.526429">
                <ele>112.611572</ele>
                <time>2006-10-21T06:18:05Z</time>
            </trkpt>
            <trkpt lon="99.339328" lat="13.526438">
                <ele>113.572998</ele>
                <time>2006-10-21T06:18:29Z</time>
            </trkpt>
            <trkpt lon="99.339019" lat="13.526608">
                <ele>113.572998</ele>
                <time>2006-10-21T06:18:42Z</time>
            </trkpt>
            <trkpt lon="99.338397" lat="13.526924">
                <ele>115.495605</ele>
                <time>2006-10-21T06:19:03Z</time>
            </trkpt>
            <trkpt lon="99.338174" lat="13.527027">
                <ele>115.495605</ele>
                <time>2006-10-21T06:19:11Z</time>
            </trkpt>
            <trkpt lon="99.338163" lat="13.527151">
                <ele>115.495605</ele>
                <time>2006-10-21T06:19:16Z</time>
            </trkpt>
            <trkpt lon="99.338293" lat="13.527634">
                <ele>115.014893</ele>
                <time>2006-10-21T06:19:31Z</time>
            </trkpt>
            <trkpt lon="99.338441" lat="13.528047">
                <ele>115.495605</ele>
                <time>2006-10-21T06:19:46Z</time>
            </trkpt>
            <trkpt lon="99.338319" lat="13.528066">
                <ele>115.495605</ele>
                <time>2006-10-21T06:19:51Z</time>
            </trkpt>
            <trkpt lon="99.337727" lat="13.528052">
                <ele>115.495605</ele>
                <time>2006-10-21T06:20:06Z</time>
            </trkpt>
            <trkpt lon="99.337618" lat="13.528019">
                <ele>115.014893</ele>
                <time>2006-10-21T06:20:09Z</time>
            </trkpt>
            <trkpt lon="99.337454" lat="13.527635">
                <ele>115.495605</ele>
                <time>2006-10-21T06:20:21Z</time>
            </trkpt>
            <trkpt lon="99.337239" lat="13.527389">
                <ele>116.937500</ele>
                <time>2006-10-21T06:20:31Z</time>
            </trkpt>
            <trkpt lon="99.336757" lat="13.527088">
                <ele>117.898804</ele>
                <time>2006-10-21T06:20:46Z</time>
            </trkpt>
            <trkpt lon="99.336387" lat="13.527092">
                <ele>119.340820</ele>
                <time>2006-10-21T06:20:57Z</time>
            </trkpt>
            <trkpt lon="99.335669" lat="13.527185">
                <ele>117.418213</ele>
                <time>2006-10-21T06:21:16Z</time>
            </trkpt>
            <trkpt lon="99.335094" lat="13.527244">
                <ele>115.976196</ele>
                <time>2006-10-21T06:21:34Z</time>
            </trkpt>
            <trkpt lon="99.335070" lat="13.527144">
                <ele>115.495605</ele>
                <time>2006-10-21T06:21:38Z</time>
            </trkpt>
            <trkpt lon="99.335069" lat="13.526840">
                <ele>116.456787</ele>
                <time>2006-10-21T06:21:47Z</time>
            </trkpt>
            <trkpt lon="99.334972" lat="13.526795">
                <ele>116.456787</ele>
                <time>2006-10-21T06:21:51Z</time>
            </trkpt>
            <trkpt lon="99.334537" lat="13.526839">
                <ele>117.418213</ele>
                <time>2006-10-21T06:22:02Z</time>
            </trkpt>
            <trkpt lon="99.334307" lat="13.526838">
                <ele>116.937500</ele>
                <time>2006-10-21T06:22:07Z</time>
            </trkpt>
            <trkpt lon="99.333450" lat="13.526899">
                <ele>116.456787</ele>
                <time>2006-10-21T06:22:25Z</time>
            </trkpt>
            <trkpt lon="99.332686" lat="13.526960">
                <ele>116.937500</ele>
                <time>2006-10-21T06:22:42Z</time>
            </trkpt>
            <trkpt lon="99.332229" lat="13.526915">
                <ele>117.898804</ele>
                <time>2006-10-21T06:22:55Z</time>
            </trkpt>
            <trkpt lon="99.331636" lat="13.526868">
                <ele>119.821411</ele>
                <time>2006-10-21T06:23:12Z</time>
            </trkpt>
            <trkpt lon="99.331441" lat="13.526822">
                <ele>120.302124</ele>
                <time>2006-10-21T06:23:23Z</time>
            </trkpt>
            <trkpt lon="99.331250" lat="13.526821">
                <ele>121.744141</ele>
                <time>2006-10-21T06:23:31Z</time>
            </trkpt>
            <trkpt lon="99.331180" lat="13.526875">
                <ele>122.224731</ele>
                <time>2006-10-21T06:23:36Z</time>
            </trkpt>
            <trkpt lon="99.331045" lat="13.526971">
                <ele>121.263550</ele>
                <time>2006-10-21T06:23:43Z</time>
            </trkpt>
            <trkpt lon="99.330992" lat="13.527135">
                <ele>122.224731</ele>
                <time>2006-10-21T06:23:50Z</time>
            </trkpt>
            <trkpt lon="99.330496" lat="13.527285">
                <ele>121.263550</ele>
                <time>2006-10-21T06:24:05Z</time>
            </trkpt>
            <trkpt lon="99.329955" lat="13.527396">
                <ele>121.263550</ele>
                <time>2006-10-21T06:24:22Z</time>
            </trkpt>
            <trkpt lon="99.329916" lat="13.527394">
                <ele>121.744141</ele>
                <time>2006-10-21T06:24:41Z</time>
            </trkpt>
            <trkpt lon="99.329909" lat="13.527388">
                <ele>125.589355</ele>
                <time>2006-10-21T06:27:31Z</time>
            </trkpt>
            <trkpt lon="99.329913" lat="13.527383">
                <ele>123.186157</ele>
                <time>2006-10-21T06:29:07Z</time>
            </trkpt>
            <trkpt lon="99.329886" lat="13.527392">
                <ele>119.340820</ele>
                <time>2006-10-21T06:29:38Z</time>
            </trkpt>
            <trkpt lon="99.329555" lat="13.527475">
                <ele>119.821411</ele>
                <time>2006-10-21T06:29:51Z</time>
            </trkpt>
            <trkpt lon="99.329060" lat="13.527592">
                <ele>120.302124</ele>
                <time>2006-10-21T06:30:07Z</time>
            </trkpt>
            <trkpt lon="99.328792" lat="13.527624">
                <ele>120.782837</ele>
                <time>2006-10-21T06:30:16Z</time>
            </trkpt>
            <trkpt lon="99.328539" lat="13.527381">
                <ele>121.263550</ele>
                <time>2006-10-21T06:30:29Z</time>
            </trkpt>
            <trkpt lon="99.328167" lat="13.527313">
                <ele>120.782837</ele>
                <time>2006-10-21T06:30:42Z</time>
            </trkpt>
            <trkpt lon="99.327627" lat="13.527255">
                <ele>120.782837</ele>
                <time>2006-10-21T06:30:58Z</time>
            </trkpt>
            <trkpt lon="99.327076" lat="13.527236">
                <ele>118.860107</ele>
                <time>2006-10-21T06:31:13Z</time>
            </trkpt>
            <trkpt lon="99.326685" lat="13.527288">
                <ele>120.302124</ele>
                <time>2006-10-21T06:31:25Z</time>
            </trkpt>
            <trkpt lon="99.326370" lat="13.527221">
                <ele>121.744141</ele>
                <time>2006-10-21T06:31:37Z</time>
            </trkpt>
            <trkpt lon="99.325982" lat="13.527109">
                <ele>123.666748</ele>
                <time>2006-10-21T06:31:50Z</time>
            </trkpt>
            <trkpt lon="99.325593" lat="13.526975">
                <ele>123.186157</ele>
                <time>2006-10-21T06:32:03Z</time>
            </trkpt>
            <trkpt lon="99.325096" lat="13.526910">
                <ele>124.147339</ele>
                <time>2006-10-21T06:32:20Z</time>
            </trkpt>
            <trkpt lon="99.324635" lat="13.526986">
                <ele>125.108765</ele>
                <time>2006-10-21T06:32:36Z</time>
            </trkpt>
            <trkpt lon="99.324076" lat="13.527319">
                <ele>124.628052</ele>
                <time>2006-10-21T06:32:57Z</time>
            </trkpt>
            <trkpt lon="99.323913" lat="13.527589">
                <ele>126.069946</ele>
                <time>2006-10-21T06:33:10Z</time>
            </trkpt>
            <trkpt lon="99.323711" lat="13.527964">
                <ele>126.550659</ele>
                <time>2006-10-21T06:33:29Z</time>
            </trkpt>
            <trkpt lon="99.323641" lat="13.528332">
                <ele>128.954102</ele>
                <time>2006-10-21T06:33:47Z</time>
            </trkpt>
            <trkpt lon="99.323637" lat="13.528354">
                <ele>132.318604</ele>
                <time>2006-10-21T06:34:08Z</time>
            </trkpt>
            <trkpt lon="99.323631" lat="13.528409">
                <ele>133.760498</ele>
                <time>2006-10-21T06:35:37Z</time>
            </trkpt>
            <trkpt lon="99.323640" lat="13.528460">
                <ele>132.799316</ele>
                <time>2006-10-21T06:35:41Z</time>
            </trkpt>
            <trkpt lon="99.323619" lat="13.528548">
                <ele>133.760498</ele>
                <time>2006-10-21T06:35:57Z</time>
            </trkpt>
            <trkpt lon="99.323561" lat="13.528727">
                <ele>136.644653</ele>
                <time>2006-10-21T06:36:13Z</time>
            </trkpt>
            <trkpt lon="99.323541" lat="13.528878">
                <ele>137.125244</ele>
                <time>2006-10-21T06:36:27Z</time>
            </trkpt>
            <trkpt lon="99.323539" lat="13.528894">
                <ele>136.163940</ele>
                <time>2006-10-21T06:36:53Z</time>
            </trkpt>
            <trkpt lon="99.323513" lat="13.528963">
                <ele>137.125244</ele>
                <time>2006-10-21T06:37:10Z</time>
            </trkpt>
            <trkpt lon="99.323533" lat="13.529107">
                <ele>138.086548</ele>
                <time>2006-10-21T06:37:25Z</time>
            </trkpt>
            <trkpt lon="99.323510" lat="13.529229">
                <ele>138.567261</ele>
                <time>2006-10-21T06:37:41Z</time>
            </trkpt>
            <trkpt lon="99.323517" lat="13.529244">
                <ele>139.047852</ele>
                <time>2006-10-21T06:37:43Z</time>
            </trkpt>
            <trkpt lon="99.323531" lat="13.529291">
                <ele>139.047852</ele>
                <time>2006-10-21T06:37:47Z</time>
            </trkpt>
            <trkpt lon="99.323509" lat="13.529586">
                <ele>141.931763</ele>
                <time>2006-10-21T06:38:06Z</time>
            </trkpt>
            <trkpt lon="99.323460" lat="13.529781">
                <ele>144.335205</ele>
                <time>2006-10-21T06:38:20Z</time>
            </trkpt>
            <trkpt lon="99.323434" lat="13.529942">
                <ele>144.335205</ele>
                <time>2006-10-21T06:38:37Z</time>
            </trkpt>
            <trkpt lon="99.323433" lat="13.529981">
                <ele>144.335205</ele>
                <time>2006-10-21T06:38:44Z</time>
            </trkpt>
            <trkpt lon="99.323386" lat="13.530255">
                <ele>142.893066</ele>
                <time>2006-10-21T06:38:59Z</time>
            </trkpt>
            <trkpt lon="99.323318" lat="13.530376">
                <ele>141.931763</ele>
                <time>2006-10-21T06:39:13Z</time>
            </trkpt>
            <trkpt lon="99.323214" lat="13.530433">
                <ele>142.893066</ele>
                <time>2006-10-21T06:39:37Z</time>
            </trkpt>
            <trkpt lon="99.323166" lat="13.530576">
                <ele>145.777100</ele>
                <time>2006-10-21T06:39:54Z</time>
            </trkpt>
            <trkpt lon="99.323187" lat="13.530635">
                <ele>147.218994</ele>
                <time>2006-10-21T06:40:02Z</time>
            </trkpt>
            <trkpt lon="99.323140" lat="13.530779">
                <ele>148.661011</ele>
                <time>2006-10-21T06:40:12Z</time>
            </trkpt>
            <trkpt lon="99.323176" lat="13.531054">
                <ele>150.103027</ele>
                <time>2006-10-21T06:40:25Z</time>
            </trkpt>
            <trkpt lon="99.323193" lat="13.531205">
                <ele>149.622314</ele>
                <time>2006-10-21T06:40:32Z</time>
            </trkpt>
            <trkpt lon="99.322868" lat="13.531518">
                <ele>151.064209</ele>
                <time>2006-10-21T06:40:49Z</time>
            </trkpt>
            <trkpt lon="99.322540" lat="13.531347">
                <ele>152.025757</ele>
                <time>2006-10-21T06:41:06Z</time>
            </trkpt>
            <trkpt lon="99.322247" lat="13.531409">
                <ele>153.467651</ele>
                <time>2006-10-21T06:41:17Z</time>
            </trkpt>
            <trkpt lon="99.321864" lat="13.531208">
                <ele>153.948364</ele>
                <time>2006-10-21T06:41:33Z</time>
            </trkpt>
            <trkpt lon="99.321367" lat="13.530904">
                <ele>155.390259</ele>
                <time>2006-10-21T06:41:52Z</time>
            </trkpt>
            <trkpt lon="99.321076" lat="13.530660">
                <ele>156.832153</ele>
                <time>2006-10-21T06:42:06Z</time>
            </trkpt>
            <trkpt lon="99.320765" lat="13.530515">
                <ele>158.274170</ele>
                <time>2006-10-21T06:42:18Z</time>
            </trkpt>
            <trkpt lon="99.320562" lat="13.530915">
                <ele>154.909546</ele>
                <time>2006-10-21T06:42:32Z</time>
            </trkpt>
            <trkpt lon="99.320396" lat="13.531241">
                <ele>153.948364</ele>
                <time>2006-10-21T06:42:44Z</time>
            </trkpt>
            <trkpt lon="99.319993" lat="13.531502">
                <ele>151.544922</ele>
                <time>2006-10-21T06:42:57Z</time>
            </trkpt>
            <trkpt lon="99.319654" lat="13.531915">
                <ele>151.544922</ele>
                <time>2006-10-21T06:43:17Z</time>
            </trkpt>
            <trkpt lon="99.319335" lat="13.532325">
                <ele>155.870972</ele>
                <time>2006-10-21T06:43:34Z</time>
            </trkpt>
            <trkpt lon="99.319464" lat="13.532821">
                <ele>152.506348</ele>
                <time>2006-10-21T06:43:48Z</time>
            </trkpt>
            <trkpt lon="99.320108" lat="13.533429">
                <ele>153.948364</ele>
                <time>2006-10-21T06:44:08Z</time>
            </trkpt>
            <trkpt lon="99.320407" lat="13.533833">
                <ele>155.390259</ele>
                <time>2006-10-21T06:44:24Z</time>
            </trkpt>
            <trkpt lon="99.320560" lat="13.533998">
                <ele>153.948364</ele>
                <time>2006-10-21T06:44:49Z</time>
            </trkpt>
            <trkpt lon="99.320628" lat="13.534095">
                <ele>152.506348</ele>
                <time>2006-10-21T06:44:52Z</time>
            </trkpt>
            <trkpt lon="99.321124" lat="13.534741">
                <ele>144.335205</ele>
                <time>2006-10-21T06:45:06Z</time>
            </trkpt>
            <trkpt lon="99.321647" lat="13.535583">
                <ele>137.605835</ele>
                <time>2006-10-21T06:45:20Z</time>
            </trkpt>
            <trkpt lon="99.321834" lat="13.535838">
                <ele>136.163940</ele>
                <time>2006-10-21T06:45:25Z</time>
            </trkpt>
            <trkpt lon="99.322367" lat="13.536485">
                <ele>133.760498</ele>
                <time>2006-10-21T06:45:38Z</time>
            </trkpt>
            <trkpt lon="99.322434" lat="13.536564">
                <ele>133.279907</ele>
                <time>2006-10-21T06:45:40Z</time>
            </trkpt>
            <trkpt lon="99.322379" lat="13.536690">
                <ele>132.799316</ele>
                <time>2006-10-21T06:45:45Z</time>
            </trkpt>
            <trkpt lon="99.321795" lat="13.536931">
                <ele>133.760498</ele>
                <time>2006-10-21T06:46:02Z</time>
            </trkpt>
            <trkpt lon="99.321335" lat="13.537216">
                <ele>134.241211</ele>
                <time>2006-10-21T06:46:16Z</time>
            </trkpt>
            <trkpt lon="99.320710" lat="13.537632">
                <ele>131.837891</ele>
                <time>2006-10-21T06:46:32Z</time>
            </trkpt>
            <trkpt lon="99.320574" lat="13.537715">
                <ele>130.876709</ele>
                <time>2006-10-21T06:46:35Z</time>
            </trkpt>
            <trkpt lon="99.319904" lat="13.538294">
                <ele>130.876709</ele>
                <time>2006-10-21T06:46:53Z</time>
            </trkpt>
            <trkpt lon="99.319216" lat="13.538670">
                <ele>127.992554</ele>
                <time>2006-10-21T06:47:08Z</time>
            </trkpt>
            <trkpt lon="99.318533" lat="13.538923">
                <ele>130.395996</ele>
                <time>2006-10-21T06:47:23Z</time>
            </trkpt>
            <trkpt lon="99.317842" lat="13.539088">
                <ele>135.683105</ele>
                <time>2006-10-21T06:47:42Z</time>
            </trkpt>
            <trkpt lon="99.317116" lat="13.539326">
                <ele>136.163940</ele>
                <time>2006-10-21T06:48:02Z</time>
            </trkpt>
            <trkpt lon="99.316233" lat="13.539663">
                <ele>133.279907</ele>
                <time>2006-10-21T06:48:19Z</time>
            </trkpt>
            <trkpt lon="99.315230" lat="13.539950">
                <ele>133.760498</ele>
                <time>2006-10-21T06:48:37Z</time>
            </trkpt>
            <trkpt lon="99.315183" lat="13.539952">
                <ele>133.760498</ele>
                <time>2006-10-21T06:48:38Z</time>
            </trkpt>
            <trkpt lon="99.314443" lat="13.539836">
                <ele>134.721924</ele>
                <time>2006-10-21T06:48:54Z</time>
            </trkpt>
            <trkpt lon="99.313426" lat="13.539626">
                <ele>133.760498</ele>
                <time>2006-10-21T06:49:14Z</time>
            </trkpt>
            <trkpt lon="99.313370" lat="13.539607">
                <ele>133.279907</ele>
                <time>2006-10-21T06:49:15Z</time>
            </trkpt>
            <trkpt lon="99.313143" lat="13.539472">
                <ele>131.357300</ele>
                <time>2006-10-21T06:49:19Z</time>
            </trkpt>
            <trkpt lon="99.312909" lat="13.539152">
                <ele>131.837891</ele>
                <time>2006-10-21T06:49:25Z</time>
            </trkpt>
            <trkpt lon="99.312706" lat="13.538947">
                <ele>132.799316</ele>
                <time>2006-10-21T06:49:30Z</time>
            </trkpt>
            <trkpt lon="99.312613" lat="13.538891">
                <ele>132.318604</ele>
                <time>2006-10-21T06:49:32Z</time>
            </trkpt>
            <trkpt lon="99.311699" lat="13.538775">
                <ele>131.357300</ele>
                <time>2006-10-21T06:49:47Z</time>
            </trkpt>
            <trkpt lon="99.311331" lat="13.538721">
                <ele>131.837891</ele>
                <time>2006-10-21T06:49:53Z</time>
            </trkpt>
            <trkpt lon="99.311044" lat="13.538467">
                <ele>130.876709</ele>
                <time>2006-10-21T06:49:59Z</time>
            </trkpt>
            <trkpt lon="99.310317" lat="13.537585">
                <ele>132.318604</ele>
                <time>2006-10-21T06:50:18Z</time>
            </trkpt>
            <trkpt lon="99.310122" lat="13.537165">
                <ele>132.799316</ele>
                <time>2006-10-21T06:50:27Z</time>
            </trkpt>
            <trkpt lon="99.310072" lat="13.536845">
                <ele>133.279907</ele>
                <time>2006-10-21T06:50:37Z</time>
            </trkpt>
            <trkpt lon="99.310070" lat="13.536841">
                <ele>135.683105</ele>
                <time>2006-10-21T06:50:51Z</time>
            </trkpt>
            <trkpt lon="99.310070" lat="13.536841">
                <ele>135.683105</ele>
                <time>2006-10-21T06:50:52Z</time>
            </trkpt>
            <trkpt lon="99.309921" lat="13.536526">
                <ele>134.721924</ele>
                <time>2006-10-21T06:51:07Z</time>
            </trkpt>
            <trkpt lon="99.309921" lat="13.536468">
                <ele>134.241211</ele>
                <time>2006-10-21T06:51:17Z</time>
            </trkpt>
            <trkpt lon="99.309924" lat="13.536458">
                <ele>134.721924</ele>
                <time>2006-10-21T06:51:32Z</time>
            </trkpt>
            <trkpt lon="99.309891" lat="13.536500">
                <ele>134.241211</ele>
                <time>2006-10-21T06:53:20Z</time>
            </trkpt>
            <trkpt lon="99.309505" lat="13.536683">
                <ele>133.760498</ele>
                <time>2006-10-21T06:53:37Z</time>
            </trkpt>
            <trkpt lon="99.309364" lat="13.536746">
                <ele>133.760498</ele>
                <time>2006-10-21T06:53:43Z</time>
            </trkpt>
            <trkpt lon="99.309467" lat="13.536933">
                <ele>132.799316</ele>
                <time>2006-10-21T06:53:53Z</time>
            </trkpt>
            <trkpt lon="99.309468" lat="13.536937">
                <ele>133.760498</ele>
                <time>2006-10-21T06:54:07Z</time>
            </trkpt>
            <trkpt lon="99.309610" lat="13.537177">
                <ele>132.318604</ele>
                <time>2006-10-21T06:54:35Z</time>
            </trkpt>
            <trkpt lon="99.309705" lat="13.537324">
                <ele>129.915283</ele>
                <time>2006-10-21T06:54:39Z</time>
            </trkpt>
            <trkpt lon="99.309792" lat="13.537430">
                <ele>127.992554</ele>
                <time>2006-10-21T06:54:43Z</time>
            </trkpt>
            <trkpt lon="99.309840" lat="13.537540">
                <ele>127.031372</ele>
                <time>2006-10-21T06:54:46Z</time>
            </trkpt>
            <trkpt lon="99.310156" lat="13.538695">
                <ele>127.511963</ele>
                <time>2006-10-21T06:55:20Z</time>
            </trkpt>
            <trkpt lon="99.310189" lat="13.538925">
                <ele>127.511963</ele>
                <time>2006-10-21T06:55:27Z</time>
            </trkpt>
            <trkpt lon="99.310099" lat="13.539084">
                <ele>129.434692</ele>
                <time>2006-10-21T06:55:35Z</time>
            </trkpt>
            <trkpt lon="99.310018" lat="13.539146">
                <ele>131.837891</ele>
                <time>2006-10-21T06:55:46Z</time>
            </trkpt>
            <trkpt lon="99.309861" lat="13.539077">
                <ele>133.760498</ele>
                <time>2006-10-21T06:55:59Z</time>
            </trkpt>
            <trkpt lon="99.309802" lat="13.539112">
                <ele>134.721924</ele>
                <time>2006-10-21T06:56:05Z</time>
            </trkpt>
            <trkpt lon="99.309733" lat="13.539266">
                <ele>135.202515</ele>
                <time>2006-10-21T06:56:19Z</time>
            </trkpt>
            <trkpt lon="99.309379" lat="13.539410">
                <ele>136.163940</ele>
                <time>2006-10-21T06:56:33Z</time>
            </trkpt>
            <trkpt lon="99.308974" lat="13.539623">
                <ele>138.086548</ele>
                <time>2006-10-21T06:56:52Z</time>
            </trkpt>
            <trkpt lon="99.308689" lat="13.539757">
                <ele>143.854370</ele>
                <time>2006-10-21T06:57:10Z</time>
            </trkpt>
            <trkpt lon="99.308310" lat="13.539839">
                <ele>153.467651</ele>
                <time>2006-10-21T06:57:32Z</time>
            </trkpt>
            <trkpt lon="99.308179" lat="13.539879">
                <ele>154.428955</ele>
                <time>2006-10-21T06:57:46Z</time>
            </trkpt>
            <trkpt lon="99.308148" lat="13.539907">
                <ele>155.390259</ele>
                <time>2006-10-21T06:57:55Z</time>
            </trkpt>
            <trkpt lon="99.307935" lat="13.540059">
                <ele>156.832153</ele>
                <time>2006-10-21T06:58:10Z</time>
            </trkpt>
            <trkpt lon="99.307851" lat="13.540092">
                <ele>156.832153</ele>
                <time>2006-10-21T06:58:14Z</time>
            </trkpt>
            <trkpt lon="99.307770" lat="13.540137">
                <ele>156.351563</ele>
                <time>2006-10-21T06:58:19Z</time>
            </trkpt>
            <trkpt lon="99.307528" lat="13.540393">
                <ele>154.428955</ele>
                <time>2006-10-21T06:58:33Z</time>
            </trkpt>
            <trkpt lon="99.307466" lat="13.540451">
                <ele>153.948364</ele>
                <time>2006-10-21T06:58:37Z</time>
            </trkpt>
            <trkpt lon="99.307482" lat="13.540808">
                <ele>151.544922</ele>
                <time>2006-10-21T06:58:49Z</time>
            </trkpt>
            <trkpt lon="99.307526" lat="13.540951">
                <ele>150.583618</ele>
                <time>2006-10-21T06:58:53Z</time>
            </trkpt>
            <trkpt lon="99.307368" lat="13.541169">
                <ele>149.622314</ele>
                <time>2006-10-21T06:59:01Z</time>
            </trkpt>
            <trkpt lon="99.306775" lat="13.541401">
                <ele>147.218994</ele>
                <time>2006-10-21T06:59:19Z</time>
            </trkpt>
            <trkpt lon="99.306469" lat="13.541518">
                <ele>145.777100</ele>
                <time>2006-10-21T06:59:33Z</time>
            </trkpt>
            <trkpt lon="99.305749" lat="13.541823">
                <ele>145.777100</ele>
                <time>2006-10-21T06:59:50Z</time>
            </trkpt>
            <trkpt lon="99.305101" lat="13.542138">
                <ele>146.257813</ele>
                <time>2006-10-21T07:00:07Z</time>
            </trkpt>
            <trkpt lon="99.304850" lat="13.542240">
                <ele>147.699707</ele>
                <time>2006-10-21T07:00:16Z</time>
            </trkpt>
            <trkpt lon="99.304758" lat="13.542203">
                <ele>147.699707</ele>
                <time>2006-10-21T07:00:20Z</time>
            </trkpt>
            <trkpt lon="99.304288" lat="13.541962">
                <ele>146.738403</ele>
                <time>2006-10-21T07:00:35Z</time>
            </trkpt>
            <trkpt lon="99.303877" lat="13.541500">
                <ele>145.296387</ele>
                <time>2006-10-21T07:00:46Z</time>
            </trkpt>
            <trkpt lon="99.303573" lat="13.541232">
                <ele>146.257813</ele>
                <time>2006-10-21T07:00:52Z</time>
            </trkpt>
            <trkpt lon="99.303395" lat="13.541150">
                <ele>145.296387</ele>
                <time>2006-10-21T07:00:55Z</time>
            </trkpt>
            <trkpt lon="99.302498" lat="13.541072">
                <ele>144.815796</ele>
                <time>2006-10-21T07:01:10Z</time>
            </trkpt>
            <trkpt lon="99.301709" lat="13.540935">
                <ele>146.257813</ele>
                <time>2006-10-21T07:01:26Z</time>
            </trkpt>
            <trkpt lon="99.300891" lat="13.540718">
                <ele>147.699707</ele>
                <time>2006-10-21T07:01:47Z</time>
            </trkpt>
            <trkpt lon="99.299893" lat="13.540459">
                <ele>146.738403</ele>
                <time>2006-10-21T07:02:09Z</time>
            </trkpt>
            <trkpt lon="99.299041" lat="13.540275">
                <ele>148.661011</ele>
                <time>2006-10-21T07:02:29Z</time>
            </trkpt>
            <trkpt lon="99.298321" lat="13.540131">
                <ele>151.544922</ele>
                <time>2006-10-21T07:02:50Z</time>
            </trkpt>
            <trkpt lon="99.297628" lat="13.539989">
                <ele>153.948364</ele>
                <time>2006-10-21T07:03:09Z</time>
            </trkpt>
            <trkpt lon="99.296863" lat="13.539776">
                <ele>155.390259</ele>
                <time>2006-10-21T07:03:28Z</time>
            </trkpt>
            <trkpt lon="99.295884" lat="13.539413">
                <ele>153.467651</ele>
                <time>2006-10-21T07:03:50Z</time>
            </trkpt>
            <trkpt lon="99.295105" lat="13.538988">
                <ele>148.180420</ele>
                <time>2006-10-21T07:04:02Z</time>
            </trkpt>
            <trkpt lon="99.294870" lat="13.538676">
                <ele>146.257813</ele>
                <time>2006-10-21T07:04:06Z</time>
            </trkpt>
            <trkpt lon="99.294726" lat="13.538218">
                <ele>145.296387</ele>
                <time>2006-10-21T07:04:11Z</time>
            </trkpt>
            <trkpt lon="99.294619" lat="13.537459">
                <ele>143.373657</ele>
                <time>2006-10-21T07:04:20Z</time>
            </trkpt>
            <trkpt lon="99.294479" lat="13.537201">
                <ele>144.335205</ele>
                <time>2006-10-21T07:04:24Z</time>
            </trkpt>
            <trkpt lon="99.293933" lat="13.536719">
                <ele>146.257813</ele>
                <time>2006-10-21T07:04:35Z</time>
            </trkpt>
            <trkpt lon="99.293461" lat="13.536726">
                <ele>145.777100</ele>
                <time>2006-10-21T07:04:43Z</time>
            </trkpt>
            <trkpt lon="99.292969" lat="13.536991">
                <ele>147.218994</ele>
                <time>2006-10-21T07:04:57Z</time>
            </trkpt>
            <trkpt lon="99.292588" lat="13.537212">
                <ele>149.622314</ele>
                <time>2006-10-21T07:05:14Z</time>
            </trkpt>
            <trkpt lon="99.292268" lat="13.537299">
                <ele>152.025757</ele>
                <time>2006-10-21T07:05:31Z</time>
            </trkpt>
            <trkpt lon="99.292024" lat="13.537294">
                <ele>154.428955</ele>
                <time>2006-10-21T07:05:45Z</time>
            </trkpt>
            <trkpt lon="99.291705" lat="13.537197">
                <ele>158.754761</ele>
                <time>2006-10-21T07:06:05Z</time>
            </trkpt>
            <trkpt lon="99.291403" lat="13.536990">
                <ele>163.561523</ele>
                <time>2006-10-21T07:06:25Z</time>
            </trkpt>
            <trkpt lon="99.291219" lat="13.536720">
                <ele>169.810059</ele>
                <time>2006-10-21T07:06:42Z</time>
            </trkpt>
            <trkpt lon="99.291101" lat="13.536317">
                <ele>172.693970</ele>
                <time>2006-10-21T07:07:01Z</time>
            </trkpt>
            <trkpt lon="99.290960" lat="13.535716">
                <ele>173.174683</ele>
                <time>2006-10-21T07:07:20Z</time>
            </trkpt>
            <trkpt lon="99.290784" lat="13.534903">
                <ele>167.887329</ele>
                <time>2006-10-21T07:07:35Z</time>
            </trkpt>
            <trkpt lon="99.290593" lat="13.533754">
                <ele>163.080811</ele>
                <time>2006-10-21T07:07:50Z</time>
            </trkpt>
            <trkpt lon="99.290586" lat="13.533320">
                <ele>163.080811</ele>
                <time>2006-10-21T07:08:00Z</time>
            </trkpt>
            <trkpt lon="99.290590" lat="13.533302">
                <ele>162.119507</ele>
                <time>2006-10-21T07:08:24Z</time>
            </trkpt>
            <trkpt lon="99.290610" lat="13.532987">
                <ele>161.638916</ele>
                <time>2006-10-21T07:08:35Z</time>
            </trkpt>
            <trkpt lon="99.290710" lat="13.532114">
                <ele>161.158203</ele>
                <time>2006-10-21T07:08:55Z</time>
            </trkpt>
            <trkpt lon="99.290743" lat="13.531128">
                <ele>161.638916</ele>
                <time>2006-10-21T07:09:17Z</time>
            </trkpt>
            <trkpt lon="99.290351" lat="13.530345">
                <ele>166.445313</ele>
                <time>2006-10-21T07:09:35Z</time>
            </trkpt>
            <trkpt lon="99.289909" lat="13.529806">
                <ele>171.732666</ele>
                <time>2006-10-21T07:09:52Z</time>
            </trkpt>
            <trkpt lon="99.289684" lat="13.529396">
                <ele>177.500610</ele>
                <time>2006-10-21T07:10:09Z</time>
            </trkpt>
            <trkpt lon="99.289564" lat="13.528986">
                <ele>180.865234</ele>
                <time>2006-10-21T07:10:28Z</time>
            </trkpt>
            <trkpt lon="99.289498" lat="13.528616">
                <ele>181.345825</ele>
                <time>2006-10-21T07:10:46Z</time>
            </trkpt>
            <trkpt lon="99.289403" lat="13.528210">
                <ele>184.229858</ele>
                <time>2006-10-21T07:11:04Z</time>
            </trkpt>
            <trkpt lon="99.289284" lat="13.527735">
                <ele>187.594360</ele>
                <time>2006-10-21T07:11:22Z</time>
            </trkpt>
            <trkpt lon="99.289118" lat="13.527045">
                <ele>190.958984</ele>
                <time>2006-10-21T07:11:45Z</time>
            </trkpt>
            <trkpt lon="99.288876" lat="13.526203">
                <ele>192.401123</ele>
                <time>2006-10-21T07:12:05Z</time>
            </trkpt>
            <trkpt lon="99.288772" lat="13.525910">
                <ele>193.362305</ele>
                <time>2006-10-21T07:12:11Z</time>
            </trkpt>
            <trkpt lon="99.288534" lat="13.524668">
                <ele>191.920288</ele>
                <time>2006-10-21T07:12:34Z</time>
            </trkpt>
            <trkpt lon="99.288539" lat="13.523757">
                <ele>189.516968</ele>
                <time>2006-10-21T07:12:51Z</time>
            </trkpt>
            <trkpt lon="99.288705" lat="13.522746">
                <ele>184.229858</ele>
                <time>2006-10-21T07:13:10Z</time>
            </trkpt>
            <trkpt lon="99.288627" lat="13.522384">
                <ele>183.268433</ele>
                <time>2006-10-21T07:13:15Z</time>
            </trkpt>
            <trkpt lon="99.288163" lat="13.521462">
                <ele>178.942627</ele>
                <time>2006-10-21T07:13:27Z</time>
            </trkpt>
            <trkpt lon="99.287615" lat="13.519928">
                <ele>171.252075</ele>
                <time>2006-10-21T07:13:44Z</time>
            </trkpt>
            <trkpt lon="99.287410" lat="13.518791">
                <ele>168.848755</ele>
                <time>2006-10-21T07:13:56Z</time>
            </trkpt>
            <trkpt lon="99.287238" lat="13.517625">
                <ele>165.003418</ele>
                <time>2006-10-21T07:14:11Z</time>
            </trkpt>
            <trkpt lon="99.286974" lat="13.516599">
                <ele>161.638916</ele>
                <time>2006-10-21T07:14:23Z</time>
            </trkpt>
            <trkpt lon="99.286946" lat="13.515541">
                <ele>156.832153</ele>
                <time>2006-10-21T07:14:36Z</time>
            </trkpt>
            <trkpt lon="99.286981" lat="13.515384">
                <ele>156.351563</ele>
                <time>2006-10-21T07:14:38Z</time>
            </trkpt>
            <trkpt lon="99.287556" lat="13.514292">
                <ele>154.428955</ele>
                <time>2006-10-21T07:14:54Z</time>
            </trkpt>
            <trkpt lon="99.288243" lat="13.513138">
                <ele>153.467651</ele>
                <time>2006-10-21T07:15:14Z</time>
            </trkpt>
            <trkpt lon="99.288461" lat="13.512673">
                <ele>150.583618</ele>
                <time>2006-10-21T07:15:26Z</time>
            </trkpt>
            <trkpt lon="99.288667" lat="13.512253">
                <ele>148.661011</ele>
                <time>2006-10-21T07:15:38Z</time>
            </trkpt>
            <trkpt lon="99.289080" lat="13.511390">
                <ele>140.970459</ele>
                <time>2006-10-21T07:15:51Z</time>
            </trkpt>
            <trkpt lon="99.289132" lat="13.511287">
                <ele>140.489868</ele>
                <time>2006-10-21T07:15:53Z</time>
            </trkpt>
            <trkpt lon="99.289387" lat="13.511134">
                <ele>140.009155</ele>
                <time>2006-10-21T07:15:59Z</time>
            </trkpt>
            <trkpt lon="99.289820" lat="13.510741">
                <ele>143.854370</ele>
                <time>2006-10-21T07:16:13Z</time>
            </trkpt>
            <trkpt lon="99.290207" lat="13.510657">
                <ele>144.815796</ele>
                <time>2006-10-21T07:16:31Z</time>
            </trkpt>
            <trkpt lon="99.290717" lat="13.510706">
                <ele>144.335205</ele>
                <time>2006-10-21T07:16:48Z</time>
            </trkpt>
            <trkpt lon="99.290866" lat="13.510711">
                <ele>144.335205</ele>
                <time>2006-10-21T07:16:51Z</time>
            </trkpt>
            <trkpt lon="99.291123" lat="13.510613">
                <ele>145.296387</ele>
                <time>2006-10-21T07:16:56Z</time>
            </trkpt>
            <trkpt lon="99.291588" lat="13.510364">
                <ele>143.373657</ele>
                <time>2006-10-21T07:17:05Z</time>
            </trkpt>
            <trkpt lon="99.291751" lat="13.510162">
                <ele>143.373657</ele>
                <time>2006-10-21T07:17:09Z</time>
            </trkpt>
            <trkpt lon="99.291840" lat="13.510102">
                <ele>142.893066</ele>
                <time>2006-10-21T07:17:11Z</time>
            </trkpt>
            <trkpt lon="99.292057" lat="13.510024">
                <ele>142.893066</ele>
                <time>2006-10-21T07:17:15Z</time>
            </trkpt>
            <trkpt lon="99.292491" lat="13.510075">
                <ele>141.451050</ele>
                <time>2006-10-21T07:17:22Z</time>
            </trkpt>
            <trkpt lon="99.293070" lat="13.510100">
                <ele>140.489868</ele>
                <time>2006-10-21T07:17:32Z</time>
            </trkpt>
            <trkpt lon="99.293427" lat="13.510283">
                <ele>135.683105</ele>
                <time>2006-10-21T07:17:43Z</time>
            </trkpt>
            <trkpt lon="99.294107" lat="13.510680">
                <ele>135.683105</ele>
                <time>2006-10-21T07:18:03Z</time>
            </trkpt>
            <trkpt lon="99.295106" lat="13.511081">
                <ele>136.163940</ele>
                <time>2006-10-21T07:18:27Z</time>
            </trkpt>
            <trkpt lon="99.295240" lat="13.511124">
                <ele>136.644653</ele>
                <time>2006-10-21T07:18:30Z</time>
            </trkpt>
            <trkpt lon="99.296006" lat="13.511234">
                <ele>136.644653</ele>
                <time>2006-10-21T07:18:45Z</time>
            </trkpt>
            <trkpt lon="99.296851" lat="13.511511">
                <ele>135.202515</ele>
                <time>2006-10-21T07:19:03Z</time>
            </trkpt>
            <trkpt lon="99.297010" lat="13.511621">
                <ele>139.528442</ele>
                <time>2006-10-21T07:19:15Z</time>
            </trkpt>
            <trkpt lon="99.297245" lat="13.511726">
                <ele>142.412476</ele>
                <time>2006-10-21T07:19:32Z</time>
            </trkpt>
            <trkpt lon="99.297796" lat="13.511822">
                <ele>139.528442</ele>
                <time>2006-10-21T07:19:46Z</time>
            </trkpt>
            <trkpt lon="99.298415" lat="13.511826">
                <ele>139.047852</ele>
                <time>2006-10-21T07:20:02Z</time>
            </trkpt>
            <trkpt lon="99.299105" lat="13.511874">
                <ele>131.837891</ele>
                <time>2006-10-21T07:20:15Z</time>
            </trkpt>
            <trkpt lon="99.299634" lat="13.512034">
                <ele>131.837891</ele>
                <time>2006-10-21T07:20:25Z</time>
            </trkpt>
            <trkpt lon="99.300055" lat="13.512181">
                <ele>138.086548</ele>
                <time>2006-10-21T07:20:41Z</time>
            </trkpt>
            <trkpt lon="99.300577" lat="13.512372">
                <ele>138.086548</ele>
                <time>2006-10-21T07:20:57Z</time>
            </trkpt>
            <trkpt lon="99.300814" lat="13.512486">
                <ele>137.605835</ele>
                <time>2006-10-21T07:21:03Z</time>
            </trkpt>
            <trkpt lon="99.300965" lat="13.512664">
                <ele>136.644653</ele>
                <time>2006-10-21T07:21:08Z</time>
            </trkpt>
            <trkpt lon="99.301402" lat="13.513618">
                <ele>136.644653</ele>
                <time>2006-10-21T07:21:29Z</time>
            </trkpt>
            <trkpt lon="99.301848" lat="13.514431">
                <ele>135.202515</ele>
                <time>2006-10-21T07:21:48Z</time>
            </trkpt>
            <trkpt lon="99.302369" lat="13.515312">
                <ele>131.357300</ele>
                <time>2006-10-21T07:22:07Z</time>
            </trkpt>
            <trkpt lon="99.302911" lat="13.516097">
                <ele>129.434692</ele>
                <time>2006-10-21T07:22:24Z</time>
            </trkpt>
            <trkpt lon="99.303613" lat="13.516455">
                <ele>130.876709</ele>
                <time>2006-10-21T07:22:38Z</time>
            </trkpt>
            <trkpt lon="99.303863" lat="13.516593">
                <ele>136.644653</ele>
                <time>2006-10-21T07:22:51Z</time>
            </trkpt>
            <trkpt lon="99.304214" lat="13.516885">
                <ele>141.451050</ele>
                <time>2006-10-21T07:23:13Z</time>
            </trkpt>
            <trkpt lon="99.304501" lat="13.517074">
                <ele>143.854370</ele>
                <time>2006-10-21T07:23:28Z</time>
            </trkpt>
            <trkpt lon="99.304980" lat="13.517357">
                <ele>139.528442</ele>
                <time>2006-10-21T07:23:39Z</time>
            </trkpt>
            <trkpt lon="99.305797" lat="13.517777">
                <ele>135.202515</ele>
                <time>2006-10-21T07:23:51Z</time>
            </trkpt>
            <trkpt lon="99.306328" lat="13.517983">
                <ele>135.683105</ele>
                <time>2006-10-21T07:24:01Z</time>
            </trkpt>
            <trkpt lon="99.306327" lat="13.517946">
                <ele>135.683105</ele>
                <time>2006-10-21T07:24:18Z</time>
            </trkpt>
            <trkpt lon="99.306270" lat="13.517921">
                <ele>138.086548</ele>
                <time>2006-10-21T07:24:42Z</time>
            </trkpt>
            <trkpt lon="99.306269" lat="13.517919">
                <ele>138.086548</ele>
                <time>2006-10-21T07:24:44Z</time>
            </trkpt>
            <trkpt lon="99.306285" lat="13.517907">
                <ele>139.528442</ele>
                <time>2006-10-21T07:25:03Z</time>
            </trkpt>
            <trkpt lon="99.306443" lat="13.517781">
                <ele>138.567261</ele>
                <time>2006-10-21T07:25:21Z</time>
            </trkpt>
            <trkpt lon="99.306459" lat="13.517719">
                <ele>139.528442</ele>
                <time>2006-10-21T07:25:35Z</time>
            </trkpt>
            <trkpt lon="99.306551" lat="13.517486">
                <ele>141.931763</ele>
                <time>2006-10-21T07:25:49Z</time>
            </trkpt>
            <trkpt lon="99.306736" lat="13.517102">
                <ele>144.815796</ele>
                <time>2006-10-21T07:26:08Z</time>
            </trkpt>
            <trkpt lon="99.307034" lat="13.516607">
                <ele>147.699707</ele>
                <time>2006-10-21T07:26:28Z</time>
            </trkpt>
            <trkpt lon="99.307544" lat="13.515925">
                <ele>140.970459</ele>
                <time>2006-10-21T07:26:44Z</time>
            </trkpt>
            <trkpt lon="99.308109" lat="13.514975">
                <ele>135.683105</ele>
                <time>2006-10-21T07:27:02Z</time>
            </trkpt>
            <trkpt lon="99.308190" lat="13.514813">
                <ele>135.202515</ele>
                <time>2006-10-21T07:27:05Z</time>
            </trkpt>
            <trkpt lon="99.308987" lat="13.514062">
                <ele>136.644653</ele>
                <time>2006-10-21T07:27:25Z</time>
            </trkpt>
            <trkpt lon="99.309137" lat="13.513916">
                <ele>137.125244</ele>
                <time>2006-10-21T07:27:29Z</time>
            </trkpt>
            <trkpt lon="99.309249" lat="13.513740">
                <ele>137.125244</ele>
                <time>2006-10-21T07:27:33Z</time>
            </trkpt>
            <trkpt lon="99.309342" lat="13.513209">
                <ele>136.644653</ele>
                <time>2006-10-21T07:27:44Z</time>
            </trkpt>
            <trkpt lon="99.309389" lat="13.513094">
                <ele>136.163940</ele>
                <time>2006-10-21T07:27:47Z</time>
            </trkpt>
            <trkpt lon="99.309398" lat="13.512922">
                <ele>135.202515</ele>
                <time>2006-10-21T07:27:51Z</time>
            </trkpt>
            <trkpt lon="99.309416" lat="13.512831">
                <ele>135.202515</ele>
                <time>2006-10-21T07:27:53Z</time>
            </trkpt>
            <trkpt lon="99.309435" lat="13.511961">
                <ele>134.241211</ele>
                <time>2006-10-21T07:28:10Z</time>
            </trkpt>
            <trkpt lon="99.309492" lat="13.511259">
                <ele>132.799316</ele>
                <time>2006-10-21T07:28:24Z</time>
            </trkpt>
            <trkpt lon="99.309587" lat="13.511057">
                <ele>132.318604</ele>
                <time>2006-10-21T07:28:33Z</time>
            </trkpt>
            <trkpt lon="99.309625" lat="13.511035">
                <ele>131.837891</ele>
                <time>2006-10-21T07:28:38Z</time>
            </trkpt>
            <trkpt lon="99.309706" lat="13.510965">
                <ele>130.876709</ele>
                <time>2006-10-21T07:28:58Z</time>
            </trkpt>
            <trkpt lon="99.309758" lat="13.510892">
                <ele>138.567261</ele>
                <time>2006-10-21T07:29:58Z</time>
            </trkpt>
            <trkpt lon="99.309782" lat="13.510900">
                <ele>132.318604</ele>
                <time>2006-10-21T07:30:14Z</time>
            </trkpt>
            <trkpt lon="99.309810" lat="13.510903">
                <ele>130.876709</ele>
                <time>2006-10-21T07:30:28Z</time>
            </trkpt>
            <trkpt lon="99.309838" lat="13.510894">
                <ele>129.915283</ele>
                <time>2006-10-21T07:30:42Z</time>
            </trkpt>
            <trkpt lon="99.309860" lat="13.510890">
                <ele>127.511963</ele>
                <time>2006-10-21T07:31:00Z</time>
            </trkpt>
            <trkpt lon="99.309896" lat="13.510874">
                <ele>125.589355</ele>
                <time>2006-10-21T07:31:16Z</time>
            </trkpt>
            <trkpt lon="99.309922" lat="13.510856">
                <ele>125.589355</ele>
                <time>2006-10-21T07:31:31Z</time>
            </trkpt>
            <trkpt lon="99.309945" lat="13.510824">
                <ele>125.108765</ele>
                <time>2006-10-21T07:31:44Z</time>
            </trkpt>
            <trkpt lon="99.309945" lat="13.510775">
                <ele>125.108765</ele>
                <time>2006-10-21T07:31:57Z</time>
            </trkpt>
            <trkpt lon="99.309951" lat="13.510745">
                <ele>125.589355</ele>
                <time>2006-10-21T07:32:13Z</time>
            </trkpt>
            <trkpt lon="99.309925" lat="13.510731">
                <ele>129.434692</ele>
                <time>2006-10-21T07:32:43Z</time>
            </trkpt>
            <trkpt lon="99.309909" lat="13.510720">
                <ele>126.069946</ele>
                <time>2006-10-21T07:33:33Z</time>
            </trkpt>
            <trkpt lon="99.309855" lat="13.510647">
                <ele>123.666748</ele>
                <time>2006-10-21T07:34:37Z</time>
            </trkpt>
            <trkpt lon="99.309855" lat="13.510647">
                <ele>123.666748</ele>
                <time>2006-10-21T07:34:38Z</time>
            </trkpt>
            <trkpt lon="99.309739" lat="13.510541">
                <ele>124.147339</ele>
                <time>2006-10-21T07:34:48Z</time>
            </trkpt>
            <trkpt lon="99.309395" lat="13.510324">
                <ele>128.473389</ele>
                <time>2006-10-21T07:35:07Z</time>
            </trkpt>
            <trkpt lon="99.309350" lat="13.510248">
                <ele>130.395996</ele>
                <time>2006-10-21T07:35:18Z</time>
            </trkpt>
            <trkpt lon="99.309359" lat="13.510120">
                <ele>130.395996</ele>
                <time>2006-10-21T07:35:44Z</time>
            </trkpt>
            <trkpt lon="99.309394" lat="13.510049">
                <ele>130.395996</ele>
                <time>2006-10-21T07:35:53Z</time>
            </trkpt>
            <trkpt lon="99.309525" lat="13.509847">
                <ele>133.760498</ele>
                <time>2006-10-21T07:36:07Z</time>
            </trkpt>
            <trkpt lon="99.309691" lat="13.509504">
                <ele>136.644653</ele>
                <time>2006-10-21T07:36:24Z</time>
            </trkpt>
            <trkpt lon="99.309917" lat="13.508840">
                <ele>139.047852</ele>
                <time>2006-10-21T07:36:47Z</time>
            </trkpt>
            <trkpt lon="99.310001" lat="13.508367">
                <ele>138.086548</ele>
                <time>2006-10-21T07:37:04Z</time>
            </trkpt>
            <trkpt lon="99.310005" lat="13.508366">
                <ele>140.970459</ele>
                <time>2006-10-21T07:37:20Z</time>
            </trkpt>
            <trkpt lon="99.309930" lat="13.508061">
                <ele>140.970459</ele>
                <time>2006-10-21T07:37:33Z</time>
            </trkpt>
            <trkpt lon="99.309824" lat="13.507388">
                <ele>142.893066</ele>
                <time>2006-10-21T07:37:53Z</time>
            </trkpt>
            <trkpt lon="99.309819" lat="13.507245">
                <ele>142.412476</ele>
                <time>2006-10-21T07:37:58Z</time>
            </trkpt>
            <trkpt lon="99.309892" lat="13.507207">
                <ele>143.373657</ele>
                <time>2006-10-21T07:38:02Z</time>
            </trkpt>
            <trkpt lon="99.309949" lat="13.507203">
                <ele>141.931763</ele>
                <time>2006-10-21T07:38:20Z</time>
            </trkpt>
            <trkpt lon="99.309979" lat="13.507196">
                <ele>138.086548</ele>
                <time>2006-10-21T07:39:09Z</time>
            </trkpt>
            <trkpt lon="99.309941" lat="13.507199">
                <ele>139.047852</ele>
                <time>2006-10-21T07:39:18Z</time>
            </trkpt>
            <trkpt lon="99.309757" lat="13.507239">
                <ele>138.567261</ele>
                <time>2006-10-21T07:39:33Z</time>
            </trkpt>
            <trkpt lon="99.309590" lat="13.507225">
                <ele>137.125244</ele>
                <time>2006-10-21T07:39:58Z</time>
            </trkpt>
            <trkpt lon="99.309291" lat="13.507150">
                <ele>135.202515</ele>
                <time>2006-10-21T07:40:14Z</time>
            </trkpt>
            <trkpt lon="99.309289" lat="13.507147">
                <ele>136.644653</ele>
                <time>2006-10-21T07:40:36Z</time>
            </trkpt>
            <trkpt lon="99.309302" lat="13.507146">
                <ele>136.644653</ele>
                <time>2006-10-21T07:40:38Z</time>
            </trkpt>
            <trkpt lon="99.309334" lat="13.507149">
                <ele>136.163940</ele>
                <time>2006-10-21T07:40:41Z</time>
            </trkpt>
            <trkpt lon="99.309705" lat="13.507245">
                <ele>136.644653</ele>
                <time>2006-10-21T07:40:57Z</time>
            </trkpt>
            <trkpt lon="99.310014" lat="13.507183">
                <ele>137.605835</ele>
                <time>2006-10-21T07:41:11Z</time>
            </trkpt>
            <trkpt lon="99.310092" lat="13.507234">
                <ele>138.086548</ele>
                <time>2006-10-21T07:41:15Z</time>
            </trkpt>
            <trkpt lon="99.310418" lat="13.507428">
                <ele>137.125244</ele>
                <time>2006-10-21T07:41:27Z</time>
            </trkpt>
            <trkpt lon="99.310591" lat="13.507167">
                <ele>137.605835</ele>
                <time>2006-10-21T07:41:37Z</time>
            </trkpt>
            <trkpt lon="99.310884" lat="13.506518">
                <ele>138.086548</ele>
                <time>2006-10-21T07:41:53Z</time>
            </trkpt>
            <trkpt lon="99.310910" lat="13.506472">
                <ele>138.567261</ele>
                <time>2006-10-21T07:41:54Z</time>
            </trkpt>
            <trkpt lon="99.311254" lat="13.506142">
                <ele>138.567261</ele>
                <time>2006-10-21T07:42:03Z</time>
            </trkpt>
            <trkpt lon="99.311716" lat="13.505391">
                <ele>137.125244</ele>
                <time>2006-10-21T07:42:21Z</time>
            </trkpt>
            <trkpt lon="99.311985" lat="13.504801">
                <ele>135.683105</ele>
                <time>2006-10-21T07:42:32Z</time>
            </trkpt>
            <trkpt lon="99.312172" lat="13.504750">
                <ele>134.721924</ele>
                <time>2006-10-21T07:42:40Z</time>
            </trkpt>
            <trkpt lon="99.312289" lat="13.504858">
                <ele>137.125244</ele>
                <time>2006-10-21T07:42:53Z</time>
            </trkpt>
            <trkpt lon="99.312302" lat="13.504852">
                <ele>136.644653</ele>
                <time>2006-10-21T07:43:06Z</time>
            </trkpt>
            <trkpt lon="99.312317" lat="13.504858">
                <ele>133.279907</ele>
                <time>2006-10-21T07:43:35Z</time>
            </trkpt>
            <trkpt lon="99.312430" lat="13.504906">
                <ele>131.837891</ele>
                <time>2006-10-21T07:43:56Z</time>
            </trkpt>
            <trkpt lon="99.312605" lat="13.504993">
                <ele>132.799316</ele>
                <time>2006-10-21T07:44:14Z</time>
            </trkpt>
            <trkpt lon="99.312876" lat="13.505105">
                <ele>134.721924</ele>
                <time>2006-10-21T07:44:30Z</time>
            </trkpt>
            <trkpt lon="99.313309" lat="13.505264">
                <ele>135.683105</ele>
                <time>2006-10-21T07:44:49Z</time>
            </trkpt>
            <trkpt lon="99.313384" lat="13.505258">
                <ele>135.683105</ele>
                <time>2006-10-21T07:44:52Z</time>
            </trkpt>
            <trkpt lon="99.313534" lat="13.505029">
                <ele>137.125244</ele>
                <time>2006-10-21T07:45:06Z</time>
            </trkpt>
            <trkpt lon="99.313694" lat="13.504675">
                <ele>140.009155</ele>
                <time>2006-10-21T07:45:25Z</time>
            </trkpt>
            <trkpt lon="99.313914" lat="13.504391">
                <ele>139.528442</ele>
                <time>2006-10-21T07:45:39Z</time>
            </trkpt>
            <trkpt lon="99.314136" lat="13.504375">
                <ele>140.489868</ele>
                <time>2006-10-21T07:45:52Z</time>
            </trkpt>
            <trkpt lon="99.314164" lat="13.504366">
                <ele>140.489868</ele>
                <time>2006-10-21T07:45:54Z</time>
            </trkpt>
            <trkpt lon="99.314251" lat="13.504358">
                <ele>141.451050</ele>
                <time>2006-10-21T07:46:00Z</time>
            </trkpt>
            <trkpt lon="99.314342" lat="13.504332">
                <ele>143.373657</ele>
                <time>2006-10-21T07:46:18Z</time>
            </trkpt>
            <trkpt lon="99.314346" lat="13.504323">
                <ele>143.373657</ele>
                <time>2006-10-21T07:46:24Z</time>
            </trkpt>
            <trkpt lon="99.314382" lat="13.504290">
                <ele>143.373657</ele>
                <time>2006-10-21T07:46:28Z</time>
            </trkpt>
            <trkpt lon="99.314462" lat="13.504209">
                <ele>143.373657</ele>
                <time>2006-10-21T07:46:34Z</time>
            </trkpt>
            <trkpt lon="99.314498" lat="13.504112">
                <ele>143.854370</ele>
                <time>2006-10-21T07:46:46Z</time>
            </trkpt>
            <trkpt lon="99.314542" lat="13.503920">
                <ele>143.373657</ele>
                <time>2006-10-21T07:46:59Z</time>
            </trkpt>
            <trkpt lon="99.314602" lat="13.503709">
                <ele>145.296387</ele>
                <time>2006-10-21T07:47:13Z</time>
            </trkpt>
            <trkpt lon="99.314763" lat="13.503371">
                <ele>147.218994</ele>
                <time>2006-10-21T07:47:32Z</time>
            </trkpt>
            <trkpt lon="99.314794" lat="13.503362">
                <ele>146.738403</ele>
                <time>2006-10-21T07:47:34Z</time>
            </trkpt>
            <trkpt lon="99.314859" lat="13.503393">
                <ele>146.738403</ele>
                <time>2006-10-21T07:47:38Z</time>
            </trkpt>
            <trkpt lon="99.315018" lat="13.503463">
                <ele>145.296387</ele>
                <time>2006-10-21T07:47:54Z</time>
            </trkpt>
            <trkpt lon="99.315084" lat="13.503475">
                <ele>147.699707</ele>
                <time>2006-10-21T07:48:34Z</time>
            </trkpt>
            <trkpt lon="99.315195" lat="13.503532">
                <ele>147.699707</ele>
                <time>2006-10-21T07:48:44Z</time>
            </trkpt>
            <trkpt lon="99.315223" lat="13.503565">
                <ele>147.218994</ele>
                <time>2006-10-21T07:48:48Z</time>
            </trkpt>
            <trkpt lon="99.315300" lat="13.503592">
                <ele>147.218994</ele>
                <time>2006-10-21T07:48:55Z</time>
            </trkpt>
            <trkpt lon="99.315372" lat="13.503659">
                <ele>147.218994</ele>
                <time>2006-10-21T07:49:10Z</time>
            </trkpt>
            <trkpt lon="99.315473" lat="13.503668">
                <ele>148.180420</ele>
                <time>2006-10-21T07:49:24Z</time>
            </trkpt>
            <trkpt lon="99.315518" lat="13.503674">
                <ele>148.180420</ele>
                <time>2006-10-21T07:49:28Z</time>
            </trkpt>
            <trkpt lon="99.315769" lat="13.503466">
                <ele>148.661011</ele>
                <time>2006-10-21T07:49:42Z</time>
            </trkpt>
            <trkpt lon="99.315825" lat="13.503395">
                <ele>148.180420</ele>
                <time>2006-10-21T07:49:46Z</time>
            </trkpt>
            <trkpt lon="99.315842" lat="13.503261">
                <ele>148.180420</ele>
                <time>2006-10-21T07:49:51Z</time>
            </trkpt>
            <trkpt lon="99.315960" lat="13.502987">
                <ele>153.467651</ele>
                <time>2006-10-21T07:50:08Z</time>
            </trkpt>
            <trkpt lon="99.316075" lat="13.502697">
                <ele>152.986938</ele>
                <time>2006-10-21T07:50:26Z</time>
            </trkpt>
            <trkpt lon="99.316104" lat="13.502554">
                <ele>152.506348</ele>
                <time>2006-10-21T07:50:32Z</time>
            </trkpt>
            <trkpt lon="99.316327" lat="13.502418">
                <ele>151.544922</ele>
                <time>2006-10-21T07:50:44Z</time>
            </trkpt>
            <trkpt lon="99.316392" lat="13.502340">
                <ele>152.025757</ele>
                <time>2006-10-21T07:50:49Z</time>
            </trkpt>
            <trkpt lon="99.316393" lat="13.502189">
                <ele>152.025757</ele>
                <time>2006-10-21T07:50:56Z</time>
            </trkpt>
            <trkpt lon="99.316429" lat="13.501772">
                <ele>151.544922</ele>
                <time>2006-10-21T07:51:13Z</time>
            </trkpt>
            <trkpt lon="99.316725" lat="13.501543">
                <ele>149.622314</ele>
                <time>2006-10-21T07:51:27Z</time>
            </trkpt>
            <trkpt lon="99.316954" lat="13.501405">
                <ele>149.622314</ele>
                <time>2006-10-21T07:51:38Z</time>
            </trkpt>
            <trkpt lon="99.316765" lat="13.500883">
                <ele>147.218994</ele>
                <time>2006-10-21T07:52:03Z</time>
            </trkpt>
            <trkpt lon="99.316905" lat="13.500586">
                <ele>147.699707</ele>
                <time>2006-10-21T07:52:15Z</time>
            </trkpt>
            <trkpt lon="99.317054" lat="13.500358">
                <ele>149.141602</ele>
                <time>2006-10-21T07:52:26Z</time>
            </trkpt>
            <trkpt lon="99.317015" lat="13.500281">
                <ele>149.141602</ele>
                <time>2006-10-21T07:52:31Z</time>
            </trkpt>
            <trkpt lon="99.316973" lat="13.500244">
                <ele>148.661011</ele>
                <time>2006-10-21T07:52:33Z</time>
            </trkpt>
            <trkpt lon="99.317081" lat="13.499992">
                <ele>149.622314</ele>
                <time>2006-10-21T07:52:47Z</time>
            </trkpt>
            <trkpt lon="99.317328" lat="13.499741">
                <ele>150.583618</ele>
                <time>2006-10-21T07:53:04Z</time>
            </trkpt>
            <trkpt lon="99.317502" lat="13.499518">
                <ele>151.064209</ele>
                <time>2006-10-21T07:53:18Z</time>
            </trkpt>
            <trkpt lon="99.317597" lat="13.499249">
                <ele>153.467651</ele>
                <time>2006-10-21T07:53:32Z</time>
            </trkpt>
            <trkpt lon="99.317621" lat="13.499181">
                <ele>153.948364</ele>
                <time>2006-10-21T07:53:36Z</time>
            </trkpt>
            <trkpt lon="99.317945" lat="13.499102">
                <ele>150.583618</ele>
                <time>2006-10-21T07:53:52Z</time>
            </trkpt>
            <trkpt lon="99.318144" lat="13.499157">
                <ele>150.583618</ele>
                <time>2006-10-21T07:54:02Z</time>
            </trkpt>
            <trkpt lon="99.318562" lat="13.499135">
                <ele>154.909546</ele>
                <time>2006-10-21T07:54:21Z</time>
            </trkpt>
            <trkpt lon="99.319066" lat="13.499162">
                <ele>153.467651</ele>
                <time>2006-10-21T07:54:35Z</time>
            </trkpt>
            <trkpt lon="99.319938" lat="13.499086">
                <ele>152.025757</ele>
                <time>2006-10-21T07:54:53Z</time>
            </trkpt>
            <trkpt lon="99.320069" lat="13.499016">
                <ele>151.544922</ele>
                <time>2006-10-21T07:54:56Z</time>
            </trkpt>
            <trkpt lon="99.320626" lat="13.498458">
                <ele>151.064209</ele>
                <time>2006-10-21T07:55:12Z</time>
            </trkpt>
            <trkpt lon="99.320652" lat="13.498309">
                <ele>151.064209</ele>
                <time>2006-10-21T07:55:16Z</time>
            </trkpt>
            <trkpt lon="99.320489" lat="13.498002">
                <ele>152.025757</ele>
                <time>2006-10-21T07:55:28Z</time>
            </trkpt>
            <trkpt lon="99.320348" lat="13.497794">
                <ele>154.909546</ele>
                <time>2006-10-21T07:55:43Z</time>
            </trkpt>
            <trkpt lon="99.320157" lat="13.497648">
                <ele>158.274170</ele>
                <time>2006-10-21T07:56:01Z</time>
            </trkpt>
            <trkpt lon="99.320077" lat="13.497562">
                <ele>160.196899</ele>
                <time>2006-10-21T07:56:08Z</time>
            </trkpt>
            <trkpt lon="99.320082" lat="13.497445">
                <ele>161.638916</ele>
                <time>2006-10-21T07:56:12Z</time>
            </trkpt>
            <trkpt lon="99.320297" lat="13.496872">
                <ele>163.561523</ele>
                <time>2006-10-21T07:56:29Z</time>
            </trkpt>
            <trkpt lon="99.320545" lat="13.496515">
                <ele>160.196899</ele>
                <time>2006-10-21T07:56:40Z</time>
            </trkpt>
            <trkpt lon="99.320571" lat="13.496430">
                <ele>159.235474</ele>
                <time>2006-10-21T07:56:42Z</time>
            </trkpt>
            <trkpt lon="99.320726" lat="13.496164">
                <ele>156.832153</ele>
                <time>2006-10-21T07:56:48Z</time>
            </trkpt>
            <trkpt lon="99.320792" lat="13.496092">
                <ele>156.351563</ele>
                <time>2006-10-21T07:56:50Z</time>
            </trkpt>
            <trkpt lon="99.321208" lat="13.495807">
                <ele>153.467651</ele>
                <time>2006-10-21T07:57:03Z</time>
            </trkpt>
            <trkpt lon="99.321976" lat="13.495228">
                <ele>151.544922</ele>
                <time>2006-10-21T07:57:24Z</time>
            </trkpt>
            <trkpt lon="99.322234" lat="13.495034">
                <ele>152.506348</ele>
                <time>2006-10-21T07:57:31Z</time>
            </trkpt>
            <trkpt lon="99.322343" lat="13.494891">
                <ele>152.506348</ele>
                <time>2006-10-21T07:57:35Z</time>
            </trkpt>
            <trkpt lon="99.322484" lat="13.494549">
                <ele>153.948364</ele>
                <time>2006-10-21T07:57:50Z</time>
            </trkpt>
            <trkpt lon="99.322563" lat="13.494356">
                <ele>154.909546</ele>
                <time>2006-10-21T07:58:00Z</time>
            </trkpt>
            <trkpt lon="99.322647" lat="13.494284">
                <ele>156.351563</ele>
                <time>2006-10-21T07:58:06Z</time>
            </trkpt>
            <trkpt lon="99.322998" lat="13.494260">
                <ele>158.274170</ele>
                <time>2006-10-21T07:58:23Z</time>
            </trkpt>
            <trkpt lon="99.323259" lat="13.493863">
                <ele>157.793579</ele>
                <time>2006-10-21T07:58:37Z</time>
            </trkpt>
            <trkpt lon="99.323318" lat="13.493735">
                <ele>158.274170</ele>
                <time>2006-10-21T07:58:41Z</time>
            </trkpt>
            <trkpt lon="99.323564" lat="13.493691">
                <ele>156.351563</ele>
                <time>2006-10-21T07:58:50Z</time>
            </trkpt>
            <trkpt lon="99.323694" lat="13.493565">
                <ele>156.351563</ele>
                <time>2006-10-21T07:58:55Z</time>
            </trkpt>
            <trkpt lon="99.324398" lat="13.492723">
                <ele>158.274170</ele>
                <time>2006-10-21T07:59:34Z</time>
            </trkpt>
            <trkpt lon="99.324449" lat="13.492642">
                <ele>160.196899</ele>
                <time>2006-10-21T07:59:46Z</time>
            </trkpt>
            <trkpt lon="99.324484" lat="13.492562">
                <ele>160.677490</ele>
                <time>2006-10-21T08:00:03Z</time>
            </trkpt>
            <trkpt lon="99.324478" lat="13.492549">
                <ele>162.119507</ele>
                <time>2006-10-21T08:00:19Z</time>
            </trkpt>
            <trkpt lon="99.324391" lat="13.492282">
                <ele>161.638916</ele>
                <time>2006-10-21T08:00:35Z</time>
            </trkpt>
            <trkpt lon="99.324457" lat="13.491829">
                <ele>162.119507</ele>
                <time>2006-10-21T08:00:49Z</time>
            </trkpt>
            <trkpt lon="99.324720" lat="13.491235">
                <ele>160.196899</ele>
                <time>2006-10-21T08:01:08Z</time>
            </trkpt>
            <trkpt lon="99.324434" lat="13.490047">
                <ele>167.406738</ele>
                <time>2006-10-21T08:01:53Z</time>
            </trkpt>
            <trkpt lon="99.324329" lat="13.489775">
                <ele>169.329468</ele>
                <time>2006-10-21T08:02:06Z</time>
            </trkpt>
            <trkpt lon="99.324271" lat="13.489668">
                <ele>169.810059</ele>
                <time>2006-10-21T08:02:20Z</time>
            </trkpt>
            <trkpt lon="99.324163" lat="13.489530">
                <ele>171.252075</ele>
                <time>2006-10-21T08:02:41Z</time>
            </trkpt>
            <trkpt lon="99.324097" lat="13.489515">
                <ele>171.732666</ele>
                <time>2006-10-21T08:02:50Z</time>
            </trkpt>
            <trkpt lon="99.323983" lat="13.489563">
                <ele>171.252075</ele>
                <time>2006-10-21T08:03:03Z</time>
            </trkpt>
            <trkpt lon="99.323945" lat="13.489517">
                <ele>171.252075</ele>
                <time>2006-10-21T08:03:09Z</time>
            </trkpt>
            <trkpt lon="99.323890" lat="13.489440">
                <ele>171.732666</ele>
                <time>2006-10-21T08:03:15Z</time>
            </trkpt>
            <trkpt lon="99.323844" lat="13.489399">
                <ele>172.213257</ele>
                <time>2006-10-21T08:03:18Z</time>
            </trkpt>
            <trkpt lon="99.323803" lat="13.489393">
                <ele>171.732666</ele>
                <time>2006-10-21T08:03:20Z</time>
            </trkpt>
            <trkpt lon="99.323721" lat="13.489453">
                <ele>169.810059</ele>
                <time>2006-10-21T08:03:24Z</time>
            </trkpt>
            <trkpt lon="99.323421" lat="13.489786">
                <ele>163.561523</ele>
                <time>2006-10-21T08:03:41Z</time>
            </trkpt>
            <trkpt lon="99.323291" lat="13.489871">
                <ele>164.522705</ele>
                <time>2006-10-21T08:03:47Z</time>
            </trkpt>
            <trkpt lon="99.323195" lat="13.489749">
                <ele>164.042114</ele>
                <time>2006-10-21T08:03:54Z</time>
            </trkpt>
            <trkpt lon="99.323090" lat="13.489342">
                <ele>165.003418</ele>
                <time>2006-10-21T08:04:10Z</time>
            </trkpt>
            <trkpt lon="99.322984" lat="13.489015">
                <ele>164.042114</ele>
                <time>2006-10-21T08:04:25Z</time>
            </trkpt>
            <trkpt lon="99.322874" lat="13.488697">
                <ele>162.119507</ele>
                <time>2006-10-21T08:04:40Z</time>
            </trkpt>
            <trkpt lon="99.322744" lat="13.488437">
                <ele>161.638916</ele>
                <time>2006-10-21T08:04:55Z</time>
            </trkpt>
            <trkpt lon="99.322732" lat="13.488429">
                <ele>161.638916</ele>
                <time>2006-10-21T08:04:56Z</time>
            </trkpt>
            <trkpt lon="99.322380" lat="13.488541">
                <ele>161.158203</ele>
                <time>2006-10-21T08:05:11Z</time>
            </trkpt>
            <trkpt lon="99.322231" lat="13.488603">
                <ele>160.677490</ele>
                <time>2006-10-21T08:05:25Z</time>
            </trkpt>
            <trkpt lon="99.322192" lat="13.488615">
                <ele>160.196899</ele>
                <time>2006-10-21T08:05:39Z</time>
            </trkpt>
            <trkpt lon="99.322052" lat="13.488664">
                <ele>158.754761</ele>
                <time>2006-10-21T08:05:53Z</time>
            </trkpt>
            <trkpt lon="99.321834" lat="13.488756">
                <ele>158.754761</ele>
                <time>2006-10-21T08:06:07Z</time>
            </trkpt>
            <trkpt lon="99.321643" lat="13.488838">
                <ele>159.235474</ele>
                <time>2006-10-21T08:06:18Z</time>
            </trkpt>
            <trkpt lon="99.321328" lat="13.488928">
                <ele>159.716187</ele>
                <time>2006-10-21T08:06:32Z</time>
            </trkpt>
            <trkpt lon="99.320921" lat="13.489170">
                <ele>159.235474</ele>
                <time>2006-10-21T08:06:50Z</time>
            </trkpt>
            <trkpt lon="99.320860" lat="13.489292">
                <ele>159.235474</ele>
                <time>2006-10-21T08:06:56Z</time>
            </trkpt>
            <trkpt lon="99.320595" lat="13.489336">
                <ele>160.196899</ele>
                <time>2006-10-21T08:07:08Z</time>
            </trkpt>
            <trkpt lon="99.320225" lat="13.489421">
                <ele>159.235474</ele>
                <time>2006-10-21T08:07:21Z</time>
            </trkpt>
            <trkpt lon="99.319762" lat="13.489543">
                <ele>159.235474</ele>
                <time>2006-10-21T08:07:39Z</time>
            </trkpt>
            <trkpt lon="99.319262" lat="13.489666">
                <ele>159.716187</ele>
                <time>2006-10-21T08:07:58Z</time>
            </trkpt>
            <trkpt lon="99.318848" lat="13.489783">
                <ele>159.716187</ele>
                <time>2006-10-21T08:08:15Z</time>
            </trkpt>
            <trkpt lon="99.318757" lat="13.489801">
                <ele>159.235474</ele>
                <time>2006-10-21T08:08:20Z</time>
            </trkpt>
            <trkpt lon="99.318703" lat="13.489745">
                <ele>159.716187</ele>
                <time>2006-10-21T08:08:24Z</time>
            </trkpt>
            <trkpt lon="99.318528" lat="13.489369">
                <ele>159.235474</ele>
                <time>2006-10-21T08:08:43Z</time>
            </trkpt>
            <trkpt lon="99.318520" lat="13.489342">
                <ele>158.754761</ele>
                <time>2006-10-21T08:08:47Z</time>
            </trkpt>
            <trkpt lon="99.318470" lat="13.489218">
                <ele>158.274170</ele>
                <time>2006-10-21T08:08:59Z</time>
            </trkpt>
            <trkpt lon="99.318341" lat="13.488812">
                <ele>154.428955</ele>
                <time>2006-10-21T08:09:14Z</time>
            </trkpt>
            <trkpt lon="99.318360" lat="13.488416">
                <ele>152.506348</ele>
                <time>2006-10-21T08:09:27Z</time>
            </trkpt>
            <trkpt lon="99.318365" lat="13.487976">
                <ele>152.986938</ele>
                <time>2006-10-21T08:09:42Z</time>
            </trkpt>
            <trkpt lon="99.318398" lat="13.487542">
                <ele>152.025757</ele>
                <time>2006-10-21T08:09:56Z</time>
            </trkpt>
            <trkpt lon="99.318471" lat="13.487164">
                <ele>150.583618</ele>
                <time>2006-10-21T08:10:08Z</time>
            </trkpt>
            <trkpt lon="99.318651" lat="13.486824">
                <ele>150.103027</ele>
                <time>2006-10-21T08:10:20Z</time>
            </trkpt>
            <trkpt lon="99.318660" lat="13.486799">
                <ele>150.103027</ele>
                <time>2006-10-21T08:10:21Z</time>
            </trkpt>
            <trkpt lon="99.318440" lat="13.486648">
                <ele>149.622314</ele>
                <time>2006-10-21T08:10:31Z</time>
            </trkpt>
            <trkpt lon="99.318344" lat="13.486560">
                <ele>149.141602</ele>
                <time>2006-10-21T08:10:35Z</time>
            </trkpt>
            <trkpt lon="99.318163" lat="13.486317">
                <ele>148.180420</ele>
                <time>2006-10-21T08:10:44Z</time>
            </trkpt>
            <trkpt lon="99.318002" lat="13.486344">
                <ele>147.699707</ele>
                <time>2006-10-21T08:10:51Z</time>
            </trkpt>
            <trkpt lon="99.317975" lat="13.486364">
                <ele>148.180420</ele>
                <time>2006-10-21T08:11:02Z</time>
            </trkpt>
            <trkpt lon="99.317957" lat="13.486381">
                <ele>148.661011</ele>
                <time>2006-10-21T08:11:28Z</time>
            </trkpt>
            <trkpt lon="99.317896" lat="13.486395">
                <ele>149.141602</ele>
                <time>2006-10-21T08:11:56Z</time>
            </trkpt>
            <trkpt lon="99.317785" lat="13.486433">
                <ele>151.064209</ele>
                <time>2006-10-21T08:12:09Z</time>
            </trkpt>
            <trkpt lon="99.317394" lat="13.486422">
                <ele>153.467651</ele>
                <time>2006-10-21T08:12:27Z</time>
            </trkpt>
            <trkpt lon="99.317042" lat="13.486414">
                <ele>152.506348</ele>
                <time>2006-10-21T08:12:39Z</time>
            </trkpt>
            <trkpt lon="99.317009" lat="13.486292">
                <ele>152.986938</ele>
                <time>2006-10-21T08:12:44Z</time>
            </trkpt>
            <trkpt lon="99.317124" lat="13.485659">
                <ele>153.467651</ele>
                <time>2006-10-21T08:13:03Z</time>
            </trkpt>
            <trkpt lon="99.317024" lat="13.484929">
                <ele>152.986938</ele>
                <time>2006-10-21T08:13:21Z</time>
            </trkpt>
            <trkpt lon="99.316976" lat="13.484707">
                <ele>152.986938</ele>
                <time>2006-10-21T08:13:26Z</time>
            </trkpt>
            <trkpt lon="99.316971" lat="13.483972">
                <ele>155.390259</ele>
                <time>2006-10-21T08:13:45Z</time>
            </trkpt>
            <trkpt lon="99.317011" lat="13.483235">
                <ele>154.909546</ele>
                <time>2006-10-21T08:14:04Z</time>
            </trkpt>
            <trkpt lon="99.317046" lat="13.482472">
                <ele>155.870972</ele>
                <time>2006-10-21T08:14:21Z</time>
            </trkpt>
            <trkpt lon="99.317268" lat="13.481648">
                <ele>156.832153</ele>
                <time>2006-10-21T08:14:42Z</time>
            </trkpt>
            <trkpt lon="99.317679" lat="13.480820">
                <ele>157.793579</ele>
                <time>2006-10-21T08:15:02Z</time>
            </trkpt>
            <trkpt lon="99.317722" lat="13.480693">
                <ele>157.793579</ele>
                <time>2006-10-21T08:15:05Z</time>
            </trkpt>
            <trkpt lon="99.317785" lat="13.479863">
                <ele>158.754761</ele>
                <time>2006-10-21T08:15:25Z</time>
            </trkpt>
            <trkpt lon="99.317832" lat="13.479049">
                <ele>157.793579</ele>
                <time>2006-10-21T08:15:44Z</time>
            </trkpt>
            <trkpt lon="99.317837" lat="13.478466">
                <ele>157.793579</ele>
                <time>2006-10-21T08:15:57Z</time>
            </trkpt>
            <trkpt lon="99.317992" lat="13.477665">
                <ele>158.754761</ele>
                <time>2006-10-21T08:16:16Z</time>
            </trkpt>
            <trkpt lon="99.318157" lat="13.476764">
                <ele>159.716187</ele>
                <time>2006-10-21T08:16:37Z</time>
            </trkpt>
            <trkpt lon="99.318262" lat="13.475931">
                <ele>160.677490</ele>
                <time>2006-10-21T08:16:57Z</time>
            </trkpt>
            <trkpt lon="99.318340" lat="13.475661">
                <ele>162.600098</ele>
                <time>2006-10-21T08:17:04Z</time>
            </trkpt>
            <trkpt lon="99.318404" lat="13.474908">
                <ele>162.119507</ele>
                <time>2006-10-21T08:17:23Z</time>
            </trkpt>
            <trkpt lon="99.318413" lat="13.474814">
                <ele>161.638916</ele>
                <time>2006-10-21T08:17:25Z</time>
            </trkpt>
            <trkpt lon="99.318450" lat="13.474671">
                <ele>161.158203</ele>
                <time>2006-10-21T08:17:28Z</time>
            </trkpt>
            <trkpt lon="99.318876" lat="13.474074">
                <ele>161.638916</ele>
                <time>2006-10-21T08:17:44Z</time>
            </trkpt>
            <trkpt lon="99.319238" lat="13.473311">
                <ele>161.638916</ele>
                <time>2006-10-21T08:18:03Z</time>
            </trkpt>
            <trkpt lon="99.319310" lat="13.473156">
                <ele>161.158203</ele>
                <time>2006-10-21T08:18:07Z</time>
            </trkpt>
            <trkpt lon="99.319565" lat="13.472925">
                <ele>163.080811</ele>
                <time>2006-10-21T08:18:19Z</time>
            </trkpt>
            <trkpt lon="99.319569" lat="13.472919">
                <ele>164.042114</ele>
                <time>2006-10-21T08:18:46Z</time>
            </trkpt>
            <trkpt lon="99.319595" lat="13.472896">
                <ele>165.003418</ele>
                <time>2006-10-21T08:19:19Z</time>
            </trkpt>
            <trkpt lon="99.319721" lat="13.472778">
                <ele>165.003418</ele>
                <time>2006-10-21T08:19:30Z</time>
            </trkpt>
            <trkpt lon="99.320307" lat="13.472289">
                <ele>165.003418</ele>
                <time>2006-10-21T08:19:52Z</time>
            </trkpt>
            <trkpt lon="99.320690" lat="13.472176">
                <ele>166.445313</ele>
                <time>2006-10-21T08:20:05Z</time>
            </trkpt>
            <trkpt lon="99.321083" lat="13.471825">
                <ele>168.848755</ele>
                <time>2006-10-21T08:20:22Z</time>
            </trkpt>
            <trkpt lon="99.321554" lat="13.471394">
                <ele>172.213257</ele>
                <time>2006-10-21T08:20:42Z</time>
            </trkpt>
            <trkpt lon="99.321992" lat="13.471315">
                <ele>173.655273</ele>
                <time>2006-10-21T08:21:00Z</time>
            </trkpt>
            <trkpt lon="99.322263" lat="13.471155">
                <ele>174.616577</ele>
                <time>2006-10-21T08:21:16Z</time>
            </trkpt>
            <trkpt lon="99.322543" lat="13.470876">
                <ele>178.461914</ele>
                <time>2006-10-21T08:21:31Z</time>
            </trkpt>
            <trkpt lon="99.322565" lat="13.470516">
                <ele>181.345825</ele>
                <time>2006-10-21T08:21:44Z</time>
            </trkpt>
            <trkpt lon="99.322808" lat="13.470069">
                <ele>182.787842</ele>
                <time>2006-10-21T08:21:58Z</time>
            </trkpt>
            <trkpt lon="99.322949" lat="13.469516">
                <ele>184.710571</ele>
                <time>2006-10-21T08:22:15Z</time>
            </trkpt>
            <trkpt lon="99.323182" lat="13.468966">
                <ele>188.075073</ele>
                <time>2006-10-21T08:22:34Z</time>
            </trkpt>
            <trkpt lon="99.323312" lat="13.468412">
                <ele>187.113770</ele>
                <time>2006-10-21T08:22:51Z</time>
            </trkpt>
            <trkpt lon="99.323383" lat="13.468200">
                <ele>188.555786</ele>
                <time>2006-10-21T08:23:05Z</time>
            </trkpt>
            <trkpt lon="99.323391" lat="13.468216">
                <ele>191.920288</ele>
                <time>2006-10-21T08:24:11Z</time>
            </trkpt>
            <trkpt lon="99.323402" lat="13.468186">
                <ele>185.671753</ele>
                <time>2006-10-21T08:45:02Z</time>
            </trkpt>
            <trkpt lon="99.323502" lat="13.468028">
                <ele>186.633179</ele>
                <time>2006-10-21T08:45:12Z</time>
            </trkpt>
            <trkpt lon="99.323691" lat="13.468151">
                <ele>188.555786</ele>
                <time>2006-10-21T08:45:24Z</time>
            </trkpt>
            <trkpt lon="99.323740" lat="13.468308">
                <ele>188.555786</ele>
                <time>2006-10-21T08:45:34Z</time>
            </trkpt>
            <trkpt lon="99.323957" lat="13.468385">
                <ele>191.439575</ele>
                <time>2006-10-21T08:45:49Z</time>
            </trkpt>
            <trkpt lon="99.324070" lat="13.468376">
                <ele>191.920288</ele>
                <time>2006-10-21T08:45:57Z</time>
            </trkpt>
            <trkpt lon="99.324182" lat="13.468350">
                <ele>192.401123</ele>
                <time>2006-10-21T08:46:11Z</time>
            </trkpt>
            <trkpt lon="99.324236" lat="13.468329">
                <ele>193.362305</ele>
                <time>2006-10-21T08:46:16Z</time>
            </trkpt>
            <trkpt lon="99.324321" lat="13.468235">
                <ele>194.323730</ele>
                <time>2006-10-21T08:46:31Z</time>
            </trkpt>
            <trkpt lon="99.324404" lat="13.468153">
                <ele>196.246338</ele>
                <time>2006-10-21T08:46:47Z</time>
            </trkpt>
            <trkpt lon="99.324412" lat="13.468152">
                <ele>196.246338</ele>
                <time>2006-10-21T08:46:54Z</time>
            </trkpt>
            <trkpt lon="99.324510" lat="13.468108">
                <ele>195.765625</ele>
                <time>2006-10-21T08:47:09Z</time>
            </trkpt>
            <trkpt lon="99.324543" lat="13.468030">
                <ele>193.843018</ele>
                <time>2006-10-21T08:47:27Z</time>
            </trkpt>
            <trkpt lon="99.324582" lat="13.467905">
                <ele>199.610840</ele>
                <time>2006-10-21T08:47:47Z</time>
            </trkpt>
            <trkpt lon="99.324683" lat="13.467840">
                <ele>201.052856</ele>
                <time>2006-10-21T08:48:01Z</time>
            </trkpt>
            <trkpt lon="99.324779" lat="13.467712">
                <ele>204.417480</ele>
                <time>2006-10-21T08:48:20Z</time>
            </trkpt>
            <trkpt lon="99.324797" lat="13.467691">
                <ele>204.417480</ele>
                <time>2006-10-21T08:48:23Z</time>
            </trkpt>
            <trkpt lon="99.324963" lat="13.467548">
                <ele>204.417480</ele>
                <time>2006-10-21T08:48:45Z</time>
            </trkpt>
            <trkpt lon="99.325148" lat="13.467454">
                <ele>207.782104</ele>
                <time>2006-10-21T08:49:06Z</time>
            </trkpt>
            <trkpt lon="99.325262" lat="13.467377">
                <ele>211.627441</ele>
                <time>2006-10-21T08:49:23Z</time>
            </trkpt>
            <trkpt lon="99.325348" lat="13.467338">
                <ele>214.511230</ele>
                <time>2006-10-21T08:49:41Z</time>
            </trkpt>
            <trkpt lon="99.325474" lat="13.467286">
                <ele>217.395386</ele>
                <time>2006-10-21T08:49:59Z</time>
            </trkpt>
            <trkpt lon="99.325639" lat="13.467269">
                <ele>218.356567</ele>
                <time>2006-10-21T08:50:19Z</time>
            </trkpt>
            <trkpt lon="99.325786" lat="13.467256">
                <ele>219.798584</ele>
                <time>2006-10-21T08:50:38Z</time>
            </trkpt>
            <trkpt lon="99.325882" lat="13.467253">
                <ele>222.682495</ele>
                <time>2006-10-21T08:50:53Z</time>
            </trkpt>
            <trkpt lon="99.325941" lat="13.467250">
                <ele>225.085938</ele>
                <time>2006-10-21T08:51:06Z</time>
            </trkpt>
            <trkpt lon="99.326024" lat="13.467235">
                <ele>225.566528</ele>
                <time>2006-10-21T08:51:15Z</time>
            </trkpt>
            <trkpt lon="99.326215" lat="13.467226">
                <ele>226.047119</ele>
                <time>2006-10-21T08:51:35Z</time>
            </trkpt>
            <trkpt lon="99.326285" lat="13.467207">
                <ele>225.085938</ele>
                <time>2006-10-21T08:51:43Z</time>
            </trkpt>
            <trkpt lon="99.326459" lat="13.467150">
                <ele>227.969727</ele>
                <time>2006-10-21T08:52:00Z</time>
            </trkpt>
            <trkpt lon="99.326606" lat="13.467095">
                <ele>230.853760</ele>
                <time>2006-10-21T08:52:17Z</time>
            </trkpt>
            <trkpt lon="99.326759" lat="13.467056">
                <ele>235.179688</ele>
                <time>2006-10-21T08:52:35Z</time>
            </trkpt>
            <trkpt lon="99.326902" lat="13.467080">
                <ele>236.140991</ele>
                <time>2006-10-21T08:52:52Z</time>
            </trkpt>
            <trkpt lon="99.327015" lat="13.467184">
                <ele>238.544312</ele>
                <time>2006-10-21T08:53:13Z</time>
            </trkpt>
            <trkpt lon="99.327030" lat="13.467202">
                <ele>238.544312</ele>
                <time>2006-10-21T08:53:16Z</time>
            </trkpt>
            <trkpt lon="99.327211" lat="13.467308">
                <ele>240.467041</ele>
                <time>2006-10-21T08:53:36Z</time>
            </trkpt>
            <trkpt lon="99.327442" lat="13.467343">
                <ele>243.831543</ele>
                <time>2006-10-21T08:53:56Z</time>
            </trkpt>
            <trkpt lon="99.327625" lat="13.467338">
                <ele>243.350830</ele>
                <time>2006-10-21T08:54:09Z</time>
            </trkpt>
            <trkpt lon="99.327812" lat="13.467260">
                <ele>241.908936</ele>
                <time>2006-10-21T08:54:20Z</time>
            </trkpt>
            <trkpt lon="99.328127" lat="13.467224">
                <ele>243.350830</ele>
                <time>2006-10-21T08:54:35Z</time>
            </trkpt>
            <trkpt lon="99.328424" lat="13.467326">
                <ele>240.467041</ele>
                <time>2006-10-21T08:54:50Z</time>
            </trkpt>
            <trkpt lon="99.328557" lat="13.467376">
                <ele>238.063599</ele>
                <time>2006-10-21T08:54:57Z</time>
            </trkpt>
            <trkpt lon="99.328606" lat="13.467433">
                <ele>236.140991</ele>
                <time>2006-10-21T08:55:09Z</time>
            </trkpt>
            <trkpt lon="99.328634" lat="13.467447">
                <ele>230.853760</ele>
                <time>2006-10-21T08:56:07Z</time>
            </trkpt>
            <trkpt lon="99.328717" lat="13.467509">
                <ele>230.853760</ele>
                <time>2006-10-21T08:56:13Z</time>
            </trkpt>
            <trkpt lon="99.328752" lat="13.467603">
                <ele>230.373047</ele>
                <time>2006-10-21T08:56:19Z</time>
            </trkpt>
            <trkpt lon="99.328803" lat="13.467681">
                <ele>230.853760</ele>
                <time>2006-10-21T08:56:34Z</time>
            </trkpt>
            <trkpt lon="99.328845" lat="13.467753">
                <ele>230.853760</ele>
                <time>2006-10-21T08:56:45Z</time>
            </trkpt>
            <trkpt lon="99.329037" lat="13.468049">
                <ele>229.411743</ele>
                <time>2006-10-21T08:57:00Z</time>
            </trkpt>
            <trkpt lon="99.329236" lat="13.468200">
                <ele>225.566528</ele>
                <time>2006-10-21T08:57:15Z</time>
            </trkpt>
            <trkpt lon="99.329420" lat="13.468255">
                <ele>224.124512</ele>
                <time>2006-10-21T08:57:30Z</time>
            </trkpt>
            <trkpt lon="99.329559" lat="13.468365">
                <ele>225.566528</ele>
                <time>2006-10-21T08:57:47Z</time>
            </trkpt>
            <trkpt lon="99.329860" lat="13.468515">
                <ele>223.643799</ele>
                <time>2006-10-21T08:58:03Z</time>
            </trkpt>
            <trkpt lon="99.329960" lat="13.468557">
                <ele>223.643799</ele>
                <time>2006-10-21T08:58:14Z</time>
            </trkpt>
            <trkpt lon="99.330120" lat="13.468627">
                <ele>223.643799</ele>
                <time>2006-10-21T08:58:30Z</time>
            </trkpt>
            <trkpt lon="99.330219" lat="13.468651">
                <ele>223.643799</ele>
                <time>2006-10-21T08:58:44Z</time>
            </trkpt>
            <trkpt lon="99.330258" lat="13.468671">
                <ele>223.163208</ele>
                <time>2006-10-21T08:58:53Z</time>
            </trkpt>
            <trkpt lon="99.330280" lat="13.468659">
                <ele>222.682495</ele>
                <time>2006-10-21T08:58:57Z</time>
            </trkpt>
            <trkpt lon="99.330294" lat="13.468637">
                <ele>222.682495</ele>
                <time>2006-10-21T08:59:01Z</time>
            </trkpt>
            <trkpt lon="99.330323" lat="13.468665">
                <ele>224.124512</ele>
                <time>2006-10-21T08:59:17Z</time>
            </trkpt>
            <trkpt lon="99.330399" lat="13.468715">
                <ele>224.605225</ele>
                <time>2006-10-21T08:59:34Z</time>
            </trkpt>
            <trkpt lon="99.330557" lat="13.468718">
                <ele>222.682495</ele>
                <time>2006-10-21T08:59:47Z</time>
            </trkpt>
            <trkpt lon="99.330876" lat="13.468786">
                <ele>220.759888</ele>
                <time>2006-10-21T09:00:06Z</time>
            </trkpt>
            <trkpt lon="99.331137" lat="13.468912">
                <ele>218.837280</ele>
                <time>2006-10-21T09:00:21Z</time>
            </trkpt>
            <trkpt lon="99.331218" lat="13.468971">
                <ele>218.356567</ele>
                <time>2006-10-21T09:00:26Z</time>
            </trkpt>
            <trkpt lon="99.331539" lat="13.469006">
                <ele>216.433960</ele>
                <time>2006-10-21T09:00:41Z</time>
            </trkpt>
            <trkpt lon="99.331895" lat="13.469022">
                <ele>214.511230</ele>
                <time>2006-10-21T09:00:56Z</time>
            </trkpt>
            <trkpt lon="99.332349" lat="13.469047">
                <ele>214.511230</ele>
                <time>2006-10-21T09:01:13Z</time>
            </trkpt>
            <trkpt lon="99.332733" lat="13.469142">
                <ele>214.030640</ele>
                <time>2006-10-21T09:01:29Z</time>
            </trkpt>
            <trkpt lon="99.332713" lat="13.469359">
                <ele>212.108032</ele>
                <time>2006-10-21T09:01:40Z</time>
            </trkpt>
            <trkpt lon="99.332942" lat="13.469611">
                <ele>209.224121</ele>
                <time>2006-10-21T09:01:52Z</time>
            </trkpt>
            <trkpt lon="99.333013" lat="13.469754">
                <ele>207.301392</ele>
                <time>2006-10-21T09:02:02Z</time>
            </trkpt>
            <trkpt lon="99.333196" lat="13.469845">
                <ele>204.417480</ele>
                <time>2006-10-21T09:02:16Z</time>
            </trkpt>
            <trkpt lon="99.333473" lat="13.470055">
                <ele>202.494873</ele>
                <time>2006-10-21T09:02:31Z</time>
            </trkpt>
            <trkpt lon="99.333714" lat="13.470371">
                <ele>203.936890</ele>
                <time>2006-10-21T09:02:45Z</time>
            </trkpt>
            <trkpt lon="99.333799" lat="13.470538">
                <ele>202.975464</ele>
                <time>2006-10-21T09:02:52Z</time>
            </trkpt>
            <trkpt lon="99.334160" lat="13.470638">
                <ele>202.975464</ele>
                <time>2006-10-21T09:03:06Z</time>
            </trkpt>
            <trkpt lon="99.334189" lat="13.470640">
                <ele>203.456177</ele>
                <time>2006-10-21T09:03:07Z</time>
            </trkpt>
            <trkpt lon="99.334268" lat="13.470712">
                <ele>202.975464</ele>
                <time>2006-10-21T09:03:12Z</time>
            </trkpt>
            <trkpt lon="99.334526" lat="13.471106">
                <ele>199.610840</ele>
                <time>2006-10-21T09:03:29Z</time>
            </trkpt>
            <trkpt lon="99.334753" lat="13.471462">
                <ele>198.649536</ele>
                <time>2006-10-21T09:03:44Z</time>
            </trkpt>
            <trkpt lon="99.335000" lat="13.471505">
                <ele>197.207520</ele>
                <time>2006-10-21T09:03:54Z</time>
            </trkpt>
            <trkpt lon="99.335138" lat="13.471429">
                <ele>196.726929</ele>
                <time>2006-10-21T09:04:01Z</time>
            </trkpt>
            <trkpt lon="99.335161" lat="13.471432">
                <ele>196.726929</ele>
                <time>2006-10-21T09:04:05Z</time>
            </trkpt>
            <trkpt lon="99.335210" lat="13.471434">
                <ele>196.246338</ele>
                <time>2006-10-21T09:04:10Z</time>
            </trkpt>
            <trkpt lon="99.335290" lat="13.471468">
                <ele>196.726929</ele>
                <time>2006-10-21T09:04:25Z</time>
            </trkpt>
            <trkpt lon="99.335458" lat="13.471602">
                <ele>198.168945</ele>
                <time>2006-10-21T09:04:42Z</time>
            </trkpt>
            <trkpt lon="99.335947" lat="13.471956">
                <ele>197.207520</ele>
                <time>2006-10-21T09:05:01Z</time>
            </trkpt>
            <trkpt lon="99.336222" lat="13.472164">
                <ele>197.688232</ele>
                <time>2006-10-21T09:05:15Z</time>
            </trkpt>
            <trkpt lon="99.336471" lat="13.472400">
                <ele>199.130127</ele>
                <time>2006-10-21T09:05:32Z</time>
            </trkpt>
            <trkpt lon="99.336689" lat="13.472585">
                <ele>198.649536</ele>
                <time>2006-10-21T09:05:46Z</time>
            </trkpt>
            <trkpt lon="99.336946" lat="13.472659">
                <ele>199.130127</ele>
                <time>2006-10-21T09:06:00Z</time>
            </trkpt>
            <trkpt lon="99.337291" lat="13.472772">
                <ele>202.014282</ele>
                <time>2006-10-21T09:06:18Z</time>
            </trkpt>
            <trkpt lon="99.337579" lat="13.472966">
                <ele>202.494873</ele>
                <time>2006-10-21T09:06:34Z</time>
            </trkpt>
            <trkpt lon="99.337864" lat="13.473264">
                <ele>201.533569</ele>
                <time>2006-10-21T09:06:49Z</time>
            </trkpt>
            <trkpt lon="99.338226" lat="13.473655">
                <ele>201.533569</ele>
                <time>2006-10-21T09:07:07Z</time>
            </trkpt>
            <trkpt lon="99.338489" lat="13.473954">
                <ele>199.130127</ele>
                <time>2006-10-21T09:07:22Z</time>
            </trkpt>
            <trkpt lon="99.338994" lat="13.474300">
                <ele>197.688232</ele>
                <time>2006-10-21T09:07:37Z</time>
            </trkpt>
            <trkpt lon="99.339350" lat="13.474741">
                <ele>196.726929</ele>
                <time>2006-10-21T09:07:52Z</time>
            </trkpt>
            <trkpt lon="99.339705" lat="13.475097">
                <ele>196.726929</ele>
                <time>2006-10-21T09:08:07Z</time>
            </trkpt>
            <trkpt lon="99.340243" lat="13.475339">
                <ele>194.804321</ele>
                <time>2006-10-21T09:08:21Z</time>
            </trkpt>
            <trkpt lon="99.340487" lat="13.475657">
                <ele>192.401123</ele>
                <time>2006-10-21T09:08:35Z</time>
            </trkpt>
            <trkpt lon="99.340501" lat="13.476322">
                <ele>190.958984</ele>
                <time>2006-10-21T09:08:54Z</time>
            </trkpt>
            <trkpt lon="99.340523" lat="13.476858">
                <ele>189.997681</ele>
                <time>2006-10-21T09:09:11Z</time>
            </trkpt>
            <trkpt lon="99.340935" lat="13.477331">
                <ele>189.036377</ele>
                <time>2006-10-21T09:09:29Z</time>
            </trkpt>
            <trkpt lon="99.341398" lat="13.477562">
                <ele>188.075073</ele>
                <time>2006-10-21T09:09:47Z</time>
            </trkpt>
            <trkpt lon="99.341725" lat="13.477494">
                <ele>189.516968</ele>
                <time>2006-10-21T09:10:04Z</time>
            </trkpt>
            <trkpt lon="99.341891" lat="13.477428">
                <ele>188.075073</ele>
                <time>2006-10-21T09:10:20Z</time>
            </trkpt>
            <trkpt lon="99.341932" lat="13.477397">
                <ele>188.075073</ele>
                <time>2006-10-21T09:10:24Z</time>
            </trkpt>
            <trkpt lon="99.342016" lat="13.477363">
                <ele>187.594360</ele>
                <time>2006-10-21T09:10:36Z</time>
            </trkpt>
            <trkpt lon="99.342031" lat="13.477360">
                <ele>187.594360</ele>
                <time>2006-10-21T09:10:39Z</time>
            </trkpt>
            <trkpt lon="99.342343" lat="13.477267">
                <ele>186.152466</ele>
                <time>2006-10-21T09:10:54Z</time>
            </trkpt>
            <trkpt lon="99.342548" lat="13.477183">
                <ele>187.113770</ele>
                <time>2006-10-21T09:11:10Z</time>
            </trkpt>
            <trkpt lon="99.342751" lat="13.477068">
                <ele>186.152466</ele>
                <time>2006-10-21T09:11:24Z</time>
            </trkpt>
            <trkpt lon="99.343039" lat="13.476961">
                <ele>186.152466</ele>
                <time>2006-10-21T09:11:40Z</time>
            </trkpt>
            <trkpt lon="99.343359" lat="13.476852">
                <ele>183.749023</ele>
                <time>2006-10-21T09:11:55Z</time>
            </trkpt>
            <trkpt lon="99.343664" lat="13.476811">
                <ele>183.268433</ele>
                <time>2006-10-21T09:12:06Z</time>
            </trkpt>
            <trkpt lon="99.344009" lat="13.476839">
                <ele>182.307129</ele>
                <time>2006-10-21T09:12:18Z</time>
            </trkpt>
            <trkpt lon="99.344244" lat="13.477006">
                <ele>180.865234</ele>
                <time>2006-10-21T09:12:30Z</time>
            </trkpt>
            <trkpt lon="99.344397" lat="13.477229">
                <ele>172.693970</ele>
                <time>2006-10-21T09:12:44Z</time>
            </trkpt>
            <trkpt lon="99.344538" lat="13.477285">
                <ele>173.655273</ele>
                <time>2006-10-21T09:12:52Z</time>
            </trkpt>
            <trkpt lon="99.344728" lat="13.477520">
                <ele>173.174683</ele>
                <time>2006-10-21T09:13:08Z</time>
            </trkpt>
            <trkpt lon="99.345002" lat="13.477752">
                <ele>177.500610</ele>
                <time>2006-10-21T09:13:25Z</time>
            </trkpt>
            <trkpt lon="99.345276" lat="13.477894">
                <ele>177.020020</ele>
                <time>2006-10-21T09:13:39Z</time>
            </trkpt>
            <trkpt lon="99.345392" lat="13.477898">
                <ele>176.539307</ele>
                <time>2006-10-21T09:13:43Z</time>
            </trkpt>
            <trkpt lon="99.345507" lat="13.477650">
                <ele>178.461914</ele>
                <time>2006-10-21T09:13:59Z</time>
            </trkpt>
            <trkpt lon="99.345619" lat="13.477417">
                <ele>178.461914</ele>
                <time>2006-10-21T09:14:14Z</time>
            </trkpt>
            <trkpt lon="99.345852" lat="13.477343">
                <ele>178.942627</ele>
                <time>2006-10-21T09:14:24Z</time>
            </trkpt>
            <trkpt lon="99.345907" lat="13.477099">
                <ele>179.903809</ele>
                <time>2006-10-21T09:14:38Z</time>
            </trkpt>
            <trkpt lon="99.346049" lat="13.476903">
                <ele>180.384521</ele>
                <time>2006-10-21T09:14:54Z</time>
            </trkpt>
            <trkpt lon="99.346251" lat="13.476808">
                <ele>183.268433</ele>
                <time>2006-10-21T09:15:08Z</time>
            </trkpt>
            <trkpt lon="99.346338" lat="13.476786">
                <ele>184.710571</ele>
                <time>2006-10-21T09:15:14Z</time>
            </trkpt>
            <trkpt lon="99.346383" lat="13.476788">
                <ele>185.671753</ele>
                <time>2006-10-21T09:15:18Z</time>
            </trkpt>
            <trkpt lon="99.346650" lat="13.476872">
                <ele>189.516968</ele>
                <time>2006-10-21T09:15:39Z</time>
            </trkpt>
            <trkpt lon="99.346687" lat="13.476883">
                <ele>189.036377</ele>
                <time>2006-10-21T09:15:42Z</time>
            </trkpt>
            <trkpt lon="99.346817" lat="13.476771">
                <ele>189.997681</ele>
                <time>2006-10-21T09:15:55Z</time>
            </trkpt>
            <trkpt lon="99.346954" lat="13.476646">
                <ele>193.362305</ele>
                <time>2006-10-21T09:16:12Z</time>
            </trkpt>
            <trkpt lon="99.347017" lat="13.476583">
                <ele>195.284912</ele>
                <time>2006-10-21T09:16:27Z</time>
            </trkpt>
            <trkpt lon="99.347134" lat="13.476478">
                <ele>199.130127</ele>
                <time>2006-10-21T09:16:44Z</time>
            </trkpt>
            <trkpt lon="99.347252" lat="13.476337">
                <ele>201.533569</ele>
                <time>2006-10-21T09:17:04Z</time>
            </trkpt>
            <trkpt lon="99.347359" lat="13.476177">
                <ele>204.417480</ele>
                <time>2006-10-21T09:17:23Z</time>
            </trkpt>
            <trkpt lon="99.347495" lat="13.476073">
                <ele>202.494873</ele>
                <time>2006-10-21T09:17:38Z</time>
            </trkpt>
            <trkpt lon="99.347701" lat="13.475993">
                <ele>202.014282</ele>
                <time>2006-10-21T09:17:49Z</time>
            </trkpt>
            <trkpt lon="99.347809" lat="13.476042">
                <ele>200.091675</ele>
                <time>2006-10-21T09:17:55Z</time>
            </trkpt>
            <trkpt lon="99.348148" lat="13.476133">
                <ele>196.726929</ele>
                <time>2006-10-21T09:18:08Z</time>
            </trkpt>
            <trkpt lon="99.348453" lat="13.476453">
                <ele>194.804321</ele>
                <time>2006-10-21T09:18:22Z</time>
            </trkpt>
            <trkpt lon="99.348449" lat="13.476534">
                <ele>193.843018</ele>
                <time>2006-10-21T09:18:31Z</time>
            </trkpt>
            <trkpt lon="99.348443" lat="13.476546">
                <ele>192.881714</ele>
                <time>2006-10-21T09:18:57Z</time>
            </trkpt>
            <trkpt lon="99.348646" lat="13.476856">
                <ele>190.958984</ele>
                <time>2006-10-21T09:19:11Z</time>
            </trkpt>
            <trkpt lon="99.348885" lat="13.477119">
                <ele>190.958984</ele>
                <time>2006-10-21T09:19:27Z</time>
            </trkpt>
            <trkpt lon="99.348926" lat="13.477335">
                <ele>189.036377</ele>
                <time>2006-10-21T09:19:36Z</time>
            </trkpt>
            <trkpt lon="99.349068" lat="13.477364">
                <ele>186.633179</ele>
                <time>2006-10-21T09:19:44Z</time>
            </trkpt>
            <trkpt lon="99.349138" lat="13.477329">
                <ele>185.671753</ele>
                <time>2006-10-21T09:19:47Z</time>
            </trkpt>
            <trkpt lon="99.349395" lat="13.477406">
                <ele>184.229858</ele>
                <time>2006-10-21T09:19:59Z</time>
            </trkpt>
            <trkpt lon="99.349413" lat="13.477421">
                <ele>183.749023</ele>
                <time>2006-10-21T09:20:00Z</time>
            </trkpt>
            <trkpt lon="99.349761" lat="13.477559">
                <ele>179.423218</ele>
                <time>2006-10-21T09:20:16Z</time>
            </trkpt>
            <trkpt lon="99.349961" lat="13.477733">
                <ele>177.500610</ele>
                <time>2006-10-21T09:20:27Z</time>
            </trkpt>
            <trkpt lon="99.350300" lat="13.477671">
                <ele>173.174683</ele>
                <time>2006-10-21T09:20:44Z</time>
            </trkpt>
            <trkpt lon="99.350608" lat="13.477553">
                <ele>171.252075</ele>
                <time>2006-10-21T09:21:00Z</time>
            </trkpt>
            <trkpt lon="99.350982" lat="13.477445">
                <ele>170.290649</ele>
                <time>2006-10-21T09:21:15Z</time>
            </trkpt>
            <trkpt lon="99.351013" lat="13.477454">
                <ele>170.290649</ele>
                <time>2006-10-21T09:21:17Z</time>
            </trkpt>
            <trkpt lon="99.351125" lat="13.477388">
                <ele>170.290649</ele>
                <time>2006-10-21T09:21:22Z</time>
            </trkpt>
            <trkpt lon="99.351155" lat="13.477370">
                <ele>170.771362</ele>
                <time>2006-10-21T09:21:36Z</time>
            </trkpt>
            <trkpt lon="99.351385" lat="13.477227">
                <ele>171.732666</ele>
                <time>2006-10-21T09:21:46Z</time>
            </trkpt>
            <trkpt lon="99.352040" lat="13.477013">
                <ele>171.252075</ele>
                <time>2006-10-21T09:22:01Z</time>
            </trkpt>
            <trkpt lon="99.352927" lat="13.476732">
                <ele>169.810059</ele>
                <time>2006-10-21T09:22:17Z</time>
            </trkpt>
            <trkpt lon="99.353719" lat="13.476492">
                <ele>169.810059</ele>
                <time>2006-10-21T09:22:32Z</time>
            </trkpt>
            <trkpt lon="99.354736" lat="13.476160">
                <ele>169.329468</ele>
                <time>2006-10-21T09:22:52Z</time>
            </trkpt>
            <trkpt lon="99.355783" lat="13.475815">
                <ele>166.926025</ele>
                <time>2006-10-21T09:23:11Z</time>
            </trkpt>
            <trkpt lon="99.356659" lat="13.475552">
                <ele>164.042114</ele>
                <time>2006-10-21T09:23:27Z</time>
            </trkpt>
            <trkpt lon="99.356729" lat="13.475660">
                <ele>163.561523</ele>
                <time>2006-10-21T09:23:37Z</time>
            </trkpt>
            <trkpt lon="99.356729" lat="13.475663">
                <ele>163.561523</ele>
                <time>2006-10-21T09:23:39Z</time>
            </trkpt>
            <trkpt lon="99.356900" lat="13.475882">
                <ele>162.119507</ele>
                <time>2006-10-21T09:23:54Z</time>
            </trkpt>
            <trkpt lon="99.357135" lat="13.476268">
                <ele>160.677490</ele>
                <time>2006-10-21T09:24:07Z</time>
            </trkpt>
            <trkpt lon="99.357438" lat="13.476798">
                <ele>156.832153</ele>
                <time>2006-10-21T09:24:23Z</time>
            </trkpt>
            <trkpt lon="99.357612" lat="13.477431">
                <ele>155.390259</ele>
                <time>2006-10-21T09:24:39Z</time>
            </trkpt>
            <trkpt lon="99.357789" lat="13.477830">
                <ele>152.986938</ele>
                <time>2006-10-21T09:24:48Z</time>
            </trkpt>
            <trkpt lon="99.357860" lat="13.477904">
                <ele>153.467651</ele>
                <time>2006-10-21T09:24:50Z</time>
            </trkpt>
            <trkpt lon="99.358170" lat="13.478140">
                <ele>154.909546</ele>
                <time>2006-10-21T09:24:59Z</time>
            </trkpt>
            <trkpt lon="99.358479" lat="13.478698">
                <ele>153.948364</ele>
                <time>2006-10-21T09:25:14Z</time>
            </trkpt>
            <trkpt lon="99.358493" lat="13.478735">
                <ele>153.948364</ele>
                <time>2006-10-21T09:25:15Z</time>
            </trkpt>
            <trkpt lon="99.358837" lat="13.478901">
                <ele>153.948364</ele>
                <time>2006-10-21T09:25:25Z</time>
            </trkpt>
            <trkpt lon="99.359006" lat="13.478947">
                <ele>154.428955</ele>
                <time>2006-10-21T09:25:33Z</time>
            </trkpt>
            <trkpt lon="99.359002" lat="13.478971">
                <ele>154.428955</ele>
                <time>2006-10-21T09:25:34Z</time>
            </trkpt>
            <trkpt lon="99.358964" lat="13.479453">
                <ele>152.506348</ele>
                <time>2006-10-21T09:25:48Z</time>
            </trkpt>
            <trkpt lon="99.358955" lat="13.479917">
                <ele>150.583618</ele>
                <time>2006-10-21T09:26:02Z</time>
            </trkpt>
            <trkpt lon="99.359033" lat="13.480084">
                <ele>152.025757</ele>
                <time>2006-10-21T09:26:10Z</time>
            </trkpt>
            <trkpt lon="99.359220" lat="13.480107">
                <ele>150.583618</ele>
                <time>2006-10-21T09:26:17Z</time>
            </trkpt>
            <trkpt lon="99.359247" lat="13.480190">
                <ele>149.141602</ele>
                <time>2006-10-21T09:26:30Z</time>
            </trkpt>
            <trkpt lon="99.359050" lat="13.480322">
                <ele>150.103027</ele>
                <time>2006-10-21T09:26:41Z</time>
            </trkpt>
            <trkpt lon="99.358541" lat="13.480347">
                <ele>150.103027</ele>
                <time>2006-10-21T09:26:57Z</time>
            </trkpt>
            <trkpt lon="99.358417" lat="13.480507">
                <ele>148.180420</ele>
                <time>2006-10-21T09:27:07Z</time>
            </trkpt>
            <trkpt lon="99.358507" lat="13.480980">
                <ele>146.738403</ele>
                <time>2006-10-21T09:27:21Z</time>
            </trkpt>
            <trkpt lon="99.358535" lat="13.481513">
                <ele>147.699707</ele>
                <time>2006-10-21T09:27:36Z</time>
            </trkpt>
            <trkpt lon="99.358640" lat="13.481942">
                <ele>149.141602</ele>
                <time>2006-10-21T09:27:49Z</time>
            </trkpt>
            <trkpt lon="99.358838" lat="13.482465">
                <ele>148.661011</ele>
                <time>2006-10-21T09:28:04Z</time>
            </trkpt>
            <trkpt lon="99.358882" lat="13.482814">
                <ele>148.661011</ele>
                <time>2006-10-21T09:28:12Z</time>
            </trkpt>
            <trkpt lon="99.358913" lat="13.482897">
                <ele>148.180420</ele>
                <time>2006-10-21T09:28:14Z</time>
            </trkpt>
            <trkpt lon="99.359047" lat="13.483149">
                <ele>148.180420</ele>
                <time>2006-10-21T09:28:21Z</time>
            </trkpt>
            <trkpt lon="99.359079" lat="13.483276">
                <ele>147.699707</ele>
                <time>2006-10-21T09:28:24Z</time>
            </trkpt>
            <trkpt lon="99.359093" lat="13.483682">
                <ele>147.699707</ele>
                <time>2006-10-21T09:28:33Z</time>
            </trkpt>
            <trkpt lon="99.359115" lat="13.483897">
                <ele>146.738403</ele>
                <time>2006-10-21T09:28:38Z</time>
            </trkpt>
            <trkpt lon="99.359131" lat="13.484371">
                <ele>147.699707</ele>
                <time>2006-10-21T09:28:50Z</time>
            </trkpt>
            <trkpt lon="99.359198" lat="13.485174">
                <ele>145.777100</ele>
                <time>2006-10-21T09:29:08Z</time>
            </trkpt>
            <trkpt lon="99.359055" lat="13.485907">
                <ele>145.296387</ele>
                <time>2006-10-21T09:29:24Z</time>
            </trkpt>
            <trkpt lon="99.358959" lat="13.486548">
                <ele>144.815796</ele>
                <time>2006-10-21T09:29:40Z</time>
            </trkpt>
            <trkpt lon="99.359208" lat="13.486899">
                <ele>142.412476</ele>
                <time>2006-10-21T09:29:51Z</time>
            </trkpt>
            <trkpt lon="99.359523" lat="13.487788">
                <ele>139.528442</ele>
                <time>2006-10-21T09:30:07Z</time>
            </trkpt>
            <trkpt lon="99.359765" lat="13.488118">
                <ele>138.567261</ele>
                <time>2006-10-21T09:30:14Z</time>
            </trkpt>
            <trkpt lon="99.360067" lat="13.488171">
                <ele>140.970459</ele>
                <time>2006-10-21T09:30:23Z</time>
            </trkpt>
            <trkpt lon="99.360342" lat="13.487989">
                <ele>140.970459</ele>
                <time>2006-10-21T09:30:32Z</time>
            </trkpt>
            <trkpt lon="99.360965" lat="13.487970">
                <ele>142.412476</ele>
                <time>2006-10-21T09:30:48Z</time>
            </trkpt>
            <trkpt lon="99.361531" lat="13.488023">
                <ele>144.335205</ele>
                <time>2006-10-21T09:31:05Z</time>
            </trkpt>
            <trkpt lon="99.361984" lat="13.488085">
                <ele>147.218994</ele>
                <time>2006-10-21T09:31:23Z</time>
            </trkpt>
            <trkpt lon="99.362075" lat="13.488077">
                <ele>148.180420</ele>
                <time>2006-10-21T09:31:27Z</time>
            </trkpt>
            <trkpt lon="99.362087" lat="13.488109">
                <ele>147.699707</ele>
                <time>2006-10-21T09:31:32Z</time>
            </trkpt>
            <trkpt lon="99.362041" lat="13.488487">
                <ele>146.257813</ele>
                <time>2006-10-21T09:31:45Z</time>
            </trkpt>
            <trkpt lon="99.361989" lat="13.489115">
                <ele>142.412476</ele>
                <time>2006-10-21T09:32:02Z</time>
            </trkpt>
            <trkpt lon="99.361986" lat="13.489762">
                <ele>140.489868</ele>
                <time>2006-10-21T09:32:17Z</time>
            </trkpt>
            <trkpt lon="99.361946" lat="13.490021">
                <ele>140.009155</ele>
                <time>2006-10-21T09:32:23Z</time>
            </trkpt>
            <trkpt lon="99.361892" lat="13.490361">
                <ele>139.528442</ele>
                <time>2006-10-21T09:32:31Z</time>
            </trkpt>
            <trkpt lon="99.361878" lat="13.490583">
                <ele>140.009155</ele>
                <time>2006-10-21T09:32:36Z</time>
            </trkpt>
            <trkpt lon="99.361821" lat="13.490799">
                <ele>139.047852</ele>
                <time>2006-10-21T09:32:41Z</time>
            </trkpt>
            <trkpt lon="99.361716" lat="13.491014">
                <ele>138.567261</ele>
                <time>2006-10-21T09:32:46Z</time>
            </trkpt>
            <trkpt lon="99.361666" lat="13.491217">
                <ele>138.086548</ele>
                <time>2006-10-21T09:32:51Z</time>
            </trkpt>
            <trkpt lon="99.361576" lat="13.491358">
                <ele>138.086548</ele>
                <time>2006-10-21T09:32:55Z</time>
            </trkpt>
            <trkpt lon="99.361150" lat="13.491815">
                <ele>137.125244</ele>
                <time>2006-10-21T09:33:08Z</time>
            </trkpt>
            <trkpt lon="99.360912" lat="13.492388">
                <ele>135.202515</ele>
                <time>2006-10-21T09:33:21Z</time>
            </trkpt>
            <trkpt lon="99.360634" lat="13.492605">
                <ele>135.202515</ele>
                <time>2006-10-21T09:33:32Z</time>
            </trkpt>
            <trkpt lon="99.360598" lat="13.492600">
                <ele>135.202515</ele>
                <time>2006-10-21T09:33:33Z</time>
            </trkpt>
            <trkpt lon="99.359982" lat="13.492474">
                <ele>136.644653</ele>
                <time>2006-10-21T09:33:51Z</time>
            </trkpt>
            <trkpt lon="99.359843" lat="13.492726">
                <ele>136.163940</ele>
                <time>2006-10-21T09:34:00Z</time>
            </trkpt>
            <trkpt lon="99.359474" lat="13.493489">
                <ele>135.202515</ele>
                <time>2006-10-21T09:34:20Z</time>
            </trkpt>
            <trkpt lon="99.359157" lat="13.494026">
                <ele>135.202515</ele>
                <time>2006-10-21T09:34:34Z</time>
            </trkpt>
            <trkpt lon="99.358856" lat="13.494532">
                <ele>134.241211</ele>
                <time>2006-10-21T09:34:49Z</time>
            </trkpt>
            <trkpt lon="99.358414" lat="13.494577">
                <ele>134.241211</ele>
                <time>2006-10-21T09:35:03Z</time>
            </trkpt>
            <trkpt lon="99.358194" lat="13.494586">
                <ele>134.241211</ele>
                <time>2006-10-21T09:35:10Z</time>
            </trkpt>
            <trkpt lon="99.357672" lat="13.494610">
                <ele>134.721924</ele>
                <time>2006-10-21T09:35:26Z</time>
            </trkpt>
            <trkpt lon="99.357546" lat="13.494681">
                <ele>135.202515</ele>
                <time>2006-10-21T09:35:32Z</time>
            </trkpt>
            <trkpt lon="99.357543" lat="13.494968">
                <ele>133.760498</ele>
                <time>2006-10-21T09:35:45Z</time>
            </trkpt>
            <trkpt lon="99.357529" lat="13.495627">
                <ele>134.241211</ele>
                <time>2006-10-21T09:36:05Z</time>
            </trkpt>
            <trkpt lon="99.357425" lat="13.496060">
                <ele>131.357300</ele>
                <time>2006-10-21T09:36:20Z</time>
            </trkpt>
            <trkpt lon="99.357329" lat="13.496309">
                <ele>131.357300</ele>
                <time>2006-10-21T09:36:35Z</time>
            </trkpt>
            <trkpt lon="99.357277" lat="13.496448">
                <ele>130.876709</ele>
                <time>2006-10-21T09:36:48Z</time>
            </trkpt>
            <trkpt lon="99.357262" lat="13.496597">
                <ele>133.760498</ele>
                <time>2006-10-21T09:37:04Z</time>
            </trkpt>
            <trkpt lon="99.357259" lat="13.496625">
                <ele>133.279907</ele>
                <time>2006-10-21T09:37:06Z</time>
            </trkpt>
            <trkpt lon="99.357282" lat="13.496944">
                <ele>131.837891</ele>
                <time>2006-10-21T09:37:20Z</time>
            </trkpt>
            <trkpt lon="99.357239" lat="13.497612">
                <ele>127.992554</ele>
                <time>2006-10-21T09:37:38Z</time>
            </trkpt>
            <trkpt lon="99.357169" lat="13.498094">
                <ele>125.589355</ele>
                <time>2006-10-21T09:37:54Z</time>
            </trkpt>
            <trkpt lon="99.357078" lat="13.498682">
                <ele>127.031372</ele>
                <time>2006-10-21T09:38:13Z</time>
            </trkpt>
            <trkpt lon="99.356953" lat="13.499292">
                <ele>126.069946</ele>
                <time>2006-10-21T09:38:31Z</time>
            </trkpt>
            <trkpt lon="99.356908" lat="13.499739">
                <ele>125.589355</ele>
                <time>2006-10-21T09:38:45Z</time>
            </trkpt>
            <trkpt lon="99.356907" lat="13.499786">
                <ele>126.550659</ele>
                <time>2006-10-21T09:38:58Z</time>
            </trkpt>
            <trkpt lon="99.356896" lat="13.499812">
                <ele>126.550659</ele>
                <time>2006-10-21T09:39:03Z</time>
            </trkpt>
            <trkpt lon="99.356875" lat="13.499872">
                <ele>126.069946</ele>
                <time>2006-10-21T09:39:15Z</time>
            </trkpt>
            <trkpt lon="99.356870" lat="13.499975">
                <ele>126.550659</ele>
                <time>2006-10-21T09:39:27Z</time>
            </trkpt>
            <trkpt lon="99.356847" lat="13.500254">
                <ele>127.511963</ele>
                <time>2006-10-21T09:39:41Z</time>
            </trkpt>
            <trkpt lon="99.356865" lat="13.500718">
                <ele>124.147339</ele>
                <time>2006-10-21T09:39:57Z</time>
            </trkpt>
            <trkpt lon="99.356906" lat="13.501368">
                <ele>126.069946</ele>
                <time>2006-10-21T09:40:17Z</time>
            </trkpt>
            <trkpt lon="99.357144" lat="13.502445">
                <ele>127.031372</ele>
                <time>2006-10-21T09:40:53Z</time>
            </trkpt>
            <trkpt lon="99.357104" lat="13.503005">
                <ele>127.031372</ele>
                <time>2006-10-21T09:41:12Z</time>
            </trkpt>
            <trkpt lon="99.356898" lat="13.503548">
                <ele>124.147339</ele>
                <time>2006-10-21T09:41:32Z</time>
            </trkpt>
            <trkpt lon="99.356641" lat="13.503992">
                <ele>123.666748</ele>
                <time>2006-10-21T09:41:51Z</time>
            </trkpt>
            <trkpt lon="99.356595" lat="13.504077">
                <ele>124.147339</ele>
                <time>2006-10-21T09:42:04Z</time>
            </trkpt>
            <trkpt lon="99.356366" lat="13.504327">
                <ele>124.147339</ele>
                <time>2006-10-21T09:42:19Z</time>
            </trkpt>
            <trkpt lon="99.356076" lat="13.504604">
                <ele>124.628052</ele>
                <time>2006-10-21T09:42:34Z</time>
            </trkpt>
            <trkpt lon="99.355766" lat="13.505043">
                <ele>124.147339</ele>
                <time>2006-10-21T09:42:51Z</time>
            </trkpt>
            <trkpt lon="99.355406" lat="13.505448">
                <ele>122.705444</ele>
                <time>2006-10-21T09:43:07Z</time>
            </trkpt>
            <trkpt lon="99.355136" lat="13.505747">
                <ele>123.666748</ele>
                <time>2006-10-21T09:43:21Z</time>
            </trkpt>
            <trkpt lon="99.355023" lat="13.506036">
                <ele>124.147339</ele>
                <time>2006-10-21T09:43:32Z</time>
            </trkpt>
            <trkpt lon="99.355037" lat="13.506309">
                <ele>124.147339</ele>
                <time>2006-10-21T09:43:42Z</time>
            </trkpt>
            <trkpt lon="99.355104" lat="13.506573">
                <ele>123.186157</ele>
                <time>2006-10-21T09:43:55Z</time>
            </trkpt>
            <trkpt lon="99.355152" lat="13.506855">
                <ele>122.705444</ele>
                <time>2006-10-21T09:44:08Z</time>
            </trkpt>
            <trkpt lon="99.354984" lat="13.507154">
                <ele>123.186157</ele>
                <time>2006-10-21T09:44:21Z</time>
            </trkpt>
            <trkpt lon="99.354699" lat="13.507467">
                <ele>122.705444</ele>
                <time>2006-10-21T09:44:36Z</time>
            </trkpt>
            <trkpt lon="99.354595" lat="13.507738">
                <ele>123.666748</ele>
                <time>2006-10-21T09:44:51Z</time>
            </trkpt>
            <trkpt lon="99.354577" lat="13.507909">
                <ele>123.666748</ele>
                <time>2006-10-21T09:45:08Z</time>
            </trkpt>
            <trkpt lon="99.354513" lat="13.508079">
                <ele>123.666748</ele>
                <time>2006-10-21T09:45:24Z</time>
            </trkpt>
            <trkpt lon="99.354409" lat="13.508330">
                <ele>123.666748</ele>
                <time>2006-10-21T09:45:36Z</time>
            </trkpt>
            <trkpt lon="99.354396" lat="13.508694">
                <ele>124.147339</ele>
                <time>2006-10-21T09:45:50Z</time>
            </trkpt>
            <trkpt lon="99.354423" lat="13.508888">
                <ele>123.186157</ele>
                <time>2006-10-21T09:46:00Z</time>
            </trkpt>
            <trkpt lon="99.354304" lat="13.508857">
                <ele>123.666748</ele>
                <time>2006-10-21T09:46:08Z</time>
            </trkpt>
            <trkpt lon="99.353981" lat="13.508889">
                <ele>122.224731</ele>
                <time>2006-10-21T09:46:21Z</time>
            </trkpt>
            <trkpt lon="99.353722" lat="13.509048">
                <ele>121.263550</ele>
                <time>2006-10-21T09:46:33Z</time>
            </trkpt>
            <trkpt lon="99.353363" lat="13.509063">
                <ele>120.302124</ele>
                <time>2006-10-21T09:46:47Z</time>
            </trkpt>
            <trkpt lon="99.353110" lat="13.509031">
                <ele>119.340820</ele>
                <time>2006-10-21T09:46:57Z</time>
            </trkpt>
            <trkpt lon="99.353075" lat="13.509071">
                <ele>120.302124</ele>
                <time>2006-10-21T09:47:09Z</time>
            </trkpt>
            <trkpt lon="99.353079" lat="13.509069">
                <ele>120.782837</ele>
                <time>2006-10-21T09:47:11Z</time>
            </trkpt>
            <trkpt lon="99.353144" lat="13.509055">
                <ele>120.782837</ele>
                <time>2006-10-21T09:47:15Z</time>
            </trkpt>
            <trkpt lon="99.353199" lat="13.509000">
                <ele>120.782837</ele>
                <time>2006-10-21T09:47:19Z</time>
            </trkpt>
            <trkpt lon="99.353290" lat="13.508969">
                <ele>120.782837</ele>
                <time>2006-10-21T09:47:24Z</time>
            </trkpt>
            <trkpt lon="99.353523" lat="13.509062">
                <ele>122.224731</ele>
                <time>2006-10-21T09:47:36Z</time>
            </trkpt>
            <trkpt lon="99.353906" lat="13.508937">
                <ele>123.186157</ele>
                <time>2006-10-21T09:47:52Z</time>
            </trkpt>
            <trkpt lon="99.354175" lat="13.508650">
                <ele>122.705444</ele>
                <time>2006-10-21T09:48:07Z</time>
            </trkpt>
            <trkpt lon="99.354265" lat="13.508580">
                <ele>122.705444</ele>
                <time>2006-10-21T09:48:11Z</time>
            </trkpt>
            <trkpt lon="99.354191" lat="13.508616">
                <ele>122.224731</ele>
                <time>2006-10-21T09:48:20Z</time>
            </trkpt>
            <trkpt lon="99.353879" lat="13.508943">
                <ele>121.744141</ele>
                <time>2006-10-21T09:48:35Z</time>
            </trkpt>
            <trkpt lon="99.353528" lat="13.509050">
                <ele>120.782837</ele>
                <time>2006-10-21T09:48:47Z</time>
            </trkpt>
            <trkpt lon="99.353046" lat="13.509056">
                <ele>119.340820</ele>
                <time>2006-10-21T09:49:00Z</time>
            </trkpt>
            <trkpt lon="99.352820" lat="13.509141">
                <ele>119.821411</ele>
                <time>2006-10-21T09:49:12Z</time>
            </trkpt>
            <trkpt lon="99.352774" lat="13.509128">
                <ele>120.782837</ele>
                <time>2006-10-21T09:49:21Z</time>
            </trkpt>
            <trkpt lon="99.352723" lat="13.509120">
                <ele>120.782837</ele>
                <time>2006-10-21T09:49:26Z</time>
            </trkpt>
            <trkpt lon="99.352652" lat="13.509146">
                <ele>120.782837</ele>
                <time>2006-10-21T09:49:30Z</time>
            </trkpt>
            <trkpt lon="99.352171" lat="13.509423">
                <ele>124.147339</ele>
                <time>2006-10-21T09:49:50Z</time>
            </trkpt>
            <trkpt lon="99.351764" lat="13.509608">
                <ele>123.666748</ele>
                <time>2006-10-21T09:50:06Z</time>
            </trkpt>
            <trkpt lon="99.351358" lat="13.509850">
                <ele>123.666748</ele>
                <time>2006-10-21T09:50:22Z</time>
            </trkpt>
            <trkpt lon="99.351115" lat="13.509946">
                <ele>122.705444</ele>
                <time>2006-10-21T09:50:33Z</time>
            </trkpt>
            <trkpt lon="99.350796" lat="13.510184">
                <ele>123.186157</ele>
                <time>2006-10-21T09:50:46Z</time>
            </trkpt>
            <trkpt lon="99.350489" lat="13.510331">
                <ele>123.186157</ele>
                <time>2006-10-21T09:50:57Z</time>
            </trkpt>
            <trkpt lon="99.350220" lat="13.510549">
                <ele>122.224731</ele>
                <time>2006-10-21T09:51:08Z</time>
            </trkpt>
            <trkpt lon="99.349960" lat="13.510873">
                <ele>121.263550</ele>
                <time>2006-10-21T09:51:20Z</time>
            </trkpt>
            <trkpt lon="99.349759" lat="13.510794">
                <ele>119.821411</ele>
                <time>2006-10-21T09:51:29Z</time>
            </trkpt>
            <trkpt lon="99.349738" lat="13.510777">
                <ele>120.302124</ele>
                <time>2006-10-21T09:51:30Z</time>
            </trkpt>
            <trkpt lon="99.349638" lat="13.510710">
                <ele>119.821411</ele>
                <time>2006-10-21T09:51:34Z</time>
            </trkpt>
            <trkpt lon="99.349314" lat="13.510731">
                <ele>123.666748</ele>
                <time>2006-10-21T09:51:47Z</time>
            </trkpt>
            <trkpt lon="99.348915" lat="13.510789">
                <ele>124.628052</ele>
                <time>2006-10-21T09:52:01Z</time>
            </trkpt>
            <trkpt lon="99.348535" lat="13.510962">
                <ele>124.147339</ele>
                <time>2006-10-21T09:52:17Z</time>
            </trkpt>
            <trkpt lon="99.348240" lat="13.511053">
                <ele>125.589355</ele>
                <time>2006-10-21T09:52:31Z</time>
            </trkpt>
            <trkpt lon="99.347847" lat="13.511202">
                <ele>124.147339</ele>
                <time>2006-10-21T09:52:45Z</time>
            </trkpt>
            <trkpt lon="99.347464" lat="13.511357">
                <ele>122.224731</ele>
                <time>2006-10-21T09:52:59Z</time>
            </trkpt>
            <trkpt lon="99.347008" lat="13.511352">
                <ele>121.744141</ele>
                <time>2006-10-21T09:53:10Z</time>
            </trkpt>
            <trkpt lon="99.346592" lat="13.511327">
                <ele>120.782837</ele>
                <time>2006-10-21T09:53:23Z</time>
            </trkpt>
            <trkpt lon="99.346320" lat="13.511295">
                <ele>121.744141</ele>
                <time>2006-10-21T09:53:36Z</time>
            </trkpt>
            <trkpt lon="99.346028" lat="13.511290">
                <ele>123.186157</ele>
                <time>2006-10-21T09:53:48Z</time>
            </trkpt>
            <trkpt lon="99.345583" lat="13.511297">
                <ele>123.666748</ele>
                <time>2006-10-21T09:54:03Z</time>
            </trkpt>
            <trkpt lon="99.345381" lat="13.511467">
                <ele>122.705444</ele>
                <time>2006-10-21T09:54:12Z</time>
            </trkpt>
            <trkpt lon="99.345345" lat="13.511686">
                <ele>121.744141</ele>
                <time>2006-10-21T09:54:18Z</time>
            </trkpt>
            <trkpt lon="99.345531" lat="13.512126">
                <ele>121.263550</ele>
                <time>2006-10-21T09:54:31Z</time>
            </trkpt>
            <trkpt lon="99.345813" lat="13.512296">
                <ele>120.302124</ele>
                <time>2006-10-21T09:54:41Z</time>
            </trkpt>
            <trkpt lon="99.346014" lat="13.512341">
                <ele>117.898804</ele>
                <time>2006-10-21T09:54:51Z</time>
            </trkpt>
            <trkpt lon="99.346042" lat="13.512353">
                <ele>118.379395</ele>
                <time>2006-10-21T09:54:55Z</time>
            </trkpt>
            <trkpt lon="99.346070" lat="13.512446">
                <ele>117.418213</ele>
                <time>2006-10-21T09:55:00Z</time>
            </trkpt>
            <trkpt lon="99.346097" lat="13.512874">
                <ele>118.860107</ele>
                <time>2006-10-21T09:55:18Z</time>
            </trkpt>
            <trkpt lon="99.346028" lat="13.512916">
                <ele>119.340820</ele>
                <time>2006-10-21T09:55:30Z</time>
            </trkpt>
            <trkpt lon="99.345776" lat="13.512995">
                <ele>119.340820</ele>
                <time>2006-10-21T09:55:43Z</time>
            </trkpt>
            <trkpt lon="99.345390" lat="13.513052">
                <ele>119.821411</ele>
                <time>2006-10-21T09:55:57Z</time>
            </trkpt>
            <trkpt lon="99.345040" lat="13.512861">
                <ele>120.782837</ele>
                <time>2006-10-21T09:56:09Z</time>
            </trkpt>
            <trkpt lon="99.344648" lat="13.512805">
                <ele>122.224731</ele>
                <time>2006-10-21T09:56:21Z</time>
            </trkpt>
            <trkpt lon="99.344177" lat="13.512839">
                <ele>124.147339</ele>
                <time>2006-10-21T09:56:35Z</time>
            </trkpt>
            <trkpt lon="99.343719" lat="13.512927">
                <ele>125.589355</ele>
                <time>2006-10-21T09:56:50Z</time>
            </trkpt>
            <trkpt lon="99.343576" lat="13.513271">
                <ele>126.550659</ele>
                <time>2006-10-21T09:57:03Z</time>
            </trkpt>
            <trkpt lon="99.343396" lat="13.513725">
                <ele>125.108765</ele>
                <time>2006-10-21T09:57:17Z</time>
            </trkpt>
            <trkpt lon="99.343359" lat="13.514299">
                <ele>124.147339</ele>
                <time>2006-10-21T09:57:32Z</time>
            </trkpt>
            <trkpt lon="99.343296" lat="13.514602">
                <ele>123.186157</ele>
                <time>2006-10-21T09:57:42Z</time>
            </trkpt>
            <trkpt lon="99.343743" lat="13.514910">
                <ele>122.705444</ele>
                <time>2006-10-21T09:57:54Z</time>
            </trkpt>
            <trkpt lon="99.343813" lat="13.514953">
                <ele>122.224731</ele>
                <time>2006-10-21T09:57:56Z</time>
            </trkpt>
            <trkpt lon="99.343870" lat="13.514851">
                <ele>123.666748</ele>
                <time>2006-10-21T09:58:01Z</time>
            </trkpt>
            <trkpt lon="99.344012" lat="13.514521">
                <ele>124.147339</ele>
                <time>2006-10-21T09:58:14Z</time>
            </trkpt>
            <trkpt lon="99.344246" lat="13.513887">
                <ele>124.147339</ele>
                <time>2006-10-21T09:58:33Z</time>
            </trkpt>
            <trkpt lon="99.344296" lat="13.513736">
                <ele>123.666748</ele>
                <time>2006-10-21T09:58:37Z</time>
            </trkpt>
            <trkpt lon="99.344736" lat="13.513792">
                <ele>125.108765</ele>
                <time>2006-10-21T09:58:49Z</time>
            </trkpt>
            <trkpt lon="99.345038" lat="13.513894">
                <ele>127.511963</ele>
                <time>2006-10-21T09:58:57Z</time>
            </trkpt>
            <trkpt lon="99.345174" lat="13.513957">
                <ele>127.992554</ele>
                <time>2006-10-21T09:59:02Z</time>
            </trkpt>
            <trkpt lon="99.345218" lat="13.514156">
                <ele>128.473389</ele>
                <time>2006-10-21T09:59:09Z</time>
            </trkpt>
            <trkpt lon="99.345293" lat="13.514178">
                <ele>127.511963</ele>
                <time>2006-10-21T09:59:17Z</time>
            </trkpt>
            <trkpt lon="99.345339" lat="13.514169">
                <ele>126.069946</ele>
                <time>2006-10-21T09:59:30Z</time>
            </trkpt>
        </trkseg>
    </trk>
</gpx>